<?xml version="1.0" encoding="UTF-8" standalone="no" ?>
<gpx xmlns="http://www.topografix.com/GPX/1/1" xmlns:xsi="http://www.w3.org/2001/XMLSchema-instance" xsi:schemaLocation="http://www.topografix.com/GPX/1/1 http://www.topografix.com/GPX/1/1/gpx.xsd" version="1.1" creator="VisuGPX - https://www.visugpx.com">
  <metadata>
    <name>Pyrénées - Marc - Certascan</name>
    <desc><![CDATA[Trans\'Pyr
Etape faite sous la pluie...
Attention au balisage trompeur côté espagnol vers le refuge (laguna romedo notamment)
Port de l\'Artigue assez technique (gros blocs) sur sa partie finale]]></desc>
  </metadata>
  <trk>
    <name><![CDATA[Pyrénées marc - certascan]]></name>
    <desc><![CDATA[<h1>OruxMaps</h1><br /><hr align="center" width="480" style="height: 2px; width: 517px"/><h2>Nom: Pyrénées marc - certascan</h2><br /><p>Temps de départ: 07/30/2015 08:06</p><p>Temps d'arrivée: 07/30/2015 17:26</p><p>Distance: 17km (09:19)</p><p>Temps déplacement: 06:59</p><p>Vitesse moyenne: 1,8km/h</p><p>Vitesse moyenne: 2,4km/h</p><p>Vitess Max.: 6,2km/h</p><p>Altitude minimale: 1006m</p><p>Altitude maximale: 2480m</p><p>Vitesse d'élévation: 316,2m/h</p><p>Vitesse de descente: -320,6m/h</p><p>Gain Altitude: 2040m</p><p>Perte Altitude: -828m</p><p>Temps d'élévation: 06:27</p><p>Temps de descente: 02:34</p><hr align="center" width="480" style="height: 2px; width: 517px"/>]]></desc>
    <trkseg>
      <trkpt lat="42.7156" lon="1.44956">
        <ele>1006.71</ele>
        <time>2015-07-30T06:06:54Z</time>
      </trkpt>
      <trkpt lat="42.71576" lon="1.4497">
        <ele>1017.48</ele>
        <time>2015-07-30T06:09:05Z</time>
      </trkpt>
      <trkpt lat="42.71595" lon="1.44971">
        <ele>1014.37</ele>
        <time>2015-07-30T06:09:18Z</time>
      </trkpt>
      <trkpt lat="42.71613" lon="1.44976">
        <ele>1011.09</ele>
        <time>2015-07-30T06:09:33Z</time>
      </trkpt>
      <trkpt lat="42.71632" lon="1.44979">
        <ele>1012.27</ele>
        <time>2015-07-30T06:09:47Z</time>
      </trkpt>
      <trkpt lat="42.71651" lon="1.44985">
        <ele>1008.78</ele>
        <time>2015-07-30T06:10:05Z</time>
      </trkpt>
      <trkpt lat="42.71657" lon="1.44961">
        <ele>1006.79</ele>
        <time>2015-07-30T06:10:23Z</time>
      </trkpt>
      <trkpt lat="42.71652" lon="1.44937">
        <ele>1010.88</ele>
        <time>2015-07-30T06:10:36Z</time>
      </trkpt>
      <trkpt lat="42.71646" lon="1.44913">
        <ele>1017.17</ele>
        <time>2015-07-30T06:10:51Z</time>
      </trkpt>
      <trkpt lat="42.71639" lon="1.4489">
        <ele>1019.67</ele>
        <time>2015-07-30T06:11:07Z</time>
      </trkpt>
      <trkpt lat="42.71644" lon="1.44866">
        <ele>1020.13</ele>
        <time>2015-07-30T06:11:25Z</time>
      </trkpt>
      <trkpt lat="42.71654" lon="1.44845">
        <ele>1021.13</ele>
        <time>2015-07-30T06:11:46Z</time>
      </trkpt>
      <trkpt lat="42.71661" lon="1.44821">
        <ele>1024.92</ele>
        <time>2015-07-30T06:12:02Z</time>
      </trkpt>
      <trkpt lat="42.71663" lon="1.44797">
        <ele>1027.92</ele>
        <time>2015-07-30T06:12:20Z</time>
      </trkpt>
      <trkpt lat="42.71656" lon="1.44774">
        <ele>1035.65</ele>
        <time>2015-07-30T06:12:57Z</time>
      </trkpt>
      <trkpt lat="42.7165" lon="1.4475">
        <ele>1034.34</ele>
        <time>2015-07-30T06:13:36Z</time>
      </trkpt>
      <trkpt lat="42.7164" lon="1.44728">
        <ele>1046.14</ele>
        <time>2015-07-30T06:14:16Z</time>
      </trkpt>
      <trkpt lat="42.7164" lon="1.44703">
        <ele>1054.26</ele>
        <time>2015-07-30T06:14:55Z</time>
      </trkpt>
      <trkpt lat="42.7164" lon="1.44679">
        <ele>1062.34</ele>
        <time>2015-07-30T06:15:35Z</time>
      </trkpt>
      <trkpt lat="42.71641" lon="1.44651">
        <ele>1059.66</ele>
        <time>2015-07-30T06:16:09Z</time>
      </trkpt>
      <trkpt lat="42.71639" lon="1.44626">
        <ele>1058.1</ele>
        <time>2015-07-30T06:16:43Z</time>
      </trkpt>
      <trkpt lat="42.71636" lon="1.44601">
        <ele>1063.49</ele>
        <time>2015-07-30T06:17:14Z</time>
      </trkpt>
      <trkpt lat="42.71637" lon="1.44576">
        <ele>1062.84</ele>
        <time>2015-07-30T06:17:48Z</time>
      </trkpt>
      <trkpt lat="42.7163" lon="1.44552">
        <ele>1071.73</ele>
        <time>2015-07-30T06:18:15Z</time>
      </trkpt>
      <trkpt lat="42.71633" lon="1.44527">
        <ele>1084.57</ele>
        <time>2015-07-30T06:18:44Z</time>
      </trkpt>
      <trkpt lat="42.71635" lon="1.44503">
        <ele>1085.4</ele>
        <time>2015-07-30T06:19:06Z</time>
      </trkpt>
      <trkpt lat="42.71641" lon="1.44479">
        <ele>1087.17</ele>
        <time>2015-07-30T06:19:26Z</time>
      </trkpt>
      <trkpt lat="42.71649" lon="1.44457">
        <ele>1085.96</ele>
        <time>2015-07-30T06:19:45Z</time>
      </trkpt>
      <trkpt lat="42.71652" lon="1.44432">
        <ele>1086.2</ele>
        <time>2015-07-30T06:20:02Z</time>
      </trkpt>
      <trkpt lat="42.71648" lon="1.44407">
        <ele>1087.2</ele>
        <time>2015-07-30T06:20:18Z</time>
      </trkpt>
      <trkpt lat="42.71648" lon="1.44382">
        <ele>1089.1</ele>
        <time>2015-07-30T06:20:34Z</time>
      </trkpt>
      <trkpt lat="42.71648" lon="1.44357">
        <ele>1091.93</ele>
        <time>2015-07-30T06:20:51Z</time>
      </trkpt>
      <trkpt lat="42.71652" lon="1.44332">
        <ele>1094.21</ele>
        <time>2015-07-30T06:21:09Z</time>
      </trkpt>
      <trkpt lat="42.71659" lon="1.44308">
        <ele>1096.57</ele>
        <time>2015-07-30T06:21:28Z</time>
      </trkpt>
      <trkpt lat="42.71661" lon="1.44282">
        <ele>1095.29</ele>
        <time>2015-07-30T06:21:45Z</time>
      </trkpt>
      <trkpt lat="42.7167" lon="1.4426">
        <ele>1100.03</ele>
        <time>2015-07-30T06:22:03Z</time>
      </trkpt>
      <trkpt lat="42.71676" lon="1.44236">
        <ele>1103.16</ele>
        <time>2015-07-30T06:22:19Z</time>
      </trkpt>
      <trkpt lat="42.7168" lon="1.44211">
        <ele>1100.4</ele>
        <time>2015-07-30T06:22:35Z</time>
      </trkpt>
      <trkpt lat="42.71686" lon="1.44187">
        <ele>1097.43</ele>
        <time>2015-07-30T06:22:53Z</time>
      </trkpt>
      <trkpt lat="42.71691" lon="1.44164">
        <ele>1092.85</ele>
        <time>2015-07-30T06:23:11Z</time>
      </trkpt>
      <trkpt lat="42.71694" lon="1.44139">
        <ele>1091.4</ele>
        <time>2015-07-30T06:23:29Z</time>
      </trkpt>
      <trkpt lat="42.71691" lon="1.44113">
        <ele>1089.7</ele>
        <time>2015-07-30T06:23:45Z</time>
      </trkpt>
      <trkpt lat="42.71691" lon="1.44088">
        <ele>1088.48</ele>
        <time>2015-07-30T06:23:59Z</time>
      </trkpt>
      <trkpt lat="42.7169" lon="1.44063">
        <ele>1082.85</ele>
        <time>2015-07-30T06:24:19Z</time>
      </trkpt>
      <trkpt lat="42.71682" lon="1.44041">
        <ele>1080.75</ele>
        <time>2015-07-30T06:24:36Z</time>
      </trkpt>
      <trkpt lat="42.7168" lon="1.44016">
        <ele>1096.82</ele>
        <time>2015-07-30T06:25:08Z</time>
      </trkpt>
      <trkpt lat="42.71678" lon="1.43992">
        <ele>1100.02</ele>
        <time>2015-07-30T06:25:23Z</time>
      </trkpt>
      <trkpt lat="42.71679" lon="1.43967">
        <ele>1108.81</ele>
        <time>2015-07-30T06:25:38Z</time>
      </trkpt>
      <trkpt lat="42.71685" lon="1.43943">
        <ele>1112.62</ele>
        <time>2015-07-30T06:25:56Z</time>
      </trkpt>
      <trkpt lat="42.71686" lon="1.43918">
        <ele>1108.22</ele>
        <time>2015-07-30T06:26:14Z</time>
      </trkpt>
      <trkpt lat="42.71678" lon="1.43894">
        <ele>1109.1</ele>
        <time>2015-07-30T06:26:29Z</time>
      </trkpt>
      <trkpt lat="42.71669" lon="1.43872">
        <ele>1114.95</ele>
        <time>2015-07-30T06:26:45Z</time>
      </trkpt>
      <trkpt lat="42.71659" lon="1.43852">
        <ele>1115.4</ele>
        <time>2015-07-30T06:27:04Z</time>
      </trkpt>
      <trkpt lat="42.71648" lon="1.43831">
        <ele>1114.46</ele>
        <time>2015-07-30T06:27:19Z</time>
      </trkpt>
      <trkpt lat="42.71637" lon="1.43812">
        <ele>1104.67</ele>
        <time>2015-07-30T06:27:41Z</time>
      </trkpt>
      <trkpt lat="42.71625" lon="1.43792">
        <ele>1106.68</ele>
        <time>2015-07-30T06:27:57Z</time>
      </trkpt>
      <trkpt lat="42.71614" lon="1.43773">
        <ele>1111.61</ele>
        <time>2015-07-30T06:28:12Z</time>
      </trkpt>
      <trkpt lat="42.71603" lon="1.43752">
        <ele>1115.14</ele>
        <time>2015-07-30T06:28:27Z</time>
      </trkpt>
      <trkpt lat="42.71595" lon="1.4373">
        <ele>1119.32</ele>
        <time>2015-07-30T06:28:47Z</time>
      </trkpt>
      <trkpt lat="42.71584" lon="1.43709">
        <ele>1123.43</ele>
        <time>2015-07-30T06:29:02Z</time>
      </trkpt>
      <trkpt lat="42.71571" lon="1.43691">
        <ele>1128.17</ele>
        <time>2015-07-30T06:29:17Z</time>
      </trkpt>
      <trkpt lat="42.71555" lon="1.43676">
        <ele>1132.65</ele>
        <time>2015-07-30T06:29:34Z</time>
      </trkpt>
      <trkpt lat="42.7154" lon="1.43663">
        <ele>1131.84</ele>
        <time>2015-07-30T06:29:52Z</time>
      </trkpt>
      <trkpt lat="42.71524" lon="1.4365">
        <ele>1125.72</ele>
        <time>2015-07-30T06:30:10Z</time>
      </trkpt>
      <trkpt lat="42.71507" lon="1.43644">
        <ele>1125.08</ele>
        <time>2015-07-30T06:30:26Z</time>
      </trkpt>
      <trkpt lat="42.7149" lon="1.43632">
        <ele>1124.95</ele>
        <time>2015-07-30T06:30:44Z</time>
      </trkpt>
      <trkpt lat="42.71477" lon="1.43615">
        <ele>1122.36</ele>
        <time>2015-07-30T06:31:01Z</time>
      </trkpt>
      <trkpt lat="42.71464" lon="1.43596">
        <ele>1124.27</ele>
        <time>2015-07-30T06:31:18Z</time>
      </trkpt>
      <trkpt lat="42.71452" lon="1.43576">
        <ele>1124.58</ele>
        <time>2015-07-30T06:31:34Z</time>
      </trkpt>
      <trkpt lat="42.71439" lon="1.43558">
        <ele>1123.96</ele>
        <time>2015-07-30T06:31:51Z</time>
      </trkpt>
      <trkpt lat="42.71426" lon="1.4354">
        <ele>1127.14</ele>
        <time>2015-07-30T06:32:08Z</time>
      </trkpt>
      <trkpt lat="42.71414" lon="1.43522">
        <ele>1127.15</ele>
        <time>2015-07-30T06:32:25Z</time>
      </trkpt>
      <trkpt lat="42.71401" lon="1.43505">
        <ele>1127.66</ele>
        <time>2015-07-30T06:32:41Z</time>
      </trkpt>
      <trkpt lat="42.71387" lon="1.43489">
        <ele>1129.29</ele>
        <time>2015-07-30T06:32:58Z</time>
      </trkpt>
      <trkpt lat="42.71373" lon="1.43472">
        <ele>1132.15</ele>
        <time>2015-07-30T06:33:15Z</time>
      </trkpt>
      <trkpt lat="42.71368" lon="1.43448">
        <ele>1131.27</ele>
        <time>2015-07-30T06:33:33Z</time>
      </trkpt>
      <trkpt lat="42.71366" lon="1.43423">
        <ele>1134.17</ele>
        <time>2015-07-30T06:33:52Z</time>
      </trkpt>
      <trkpt lat="42.71354" lon="1.43404">
        <ele>1135.2</ele>
        <time>2015-07-30T06:34:10Z</time>
      </trkpt>
      <trkpt lat="42.71343" lon="1.43384">
        <ele>1138.21</ele>
        <time>2015-07-30T06:34:29Z</time>
      </trkpt>
      <trkpt lat="42.71334" lon="1.43362">
        <ele>1139.2</ele>
        <time>2015-07-30T06:34:48Z</time>
      </trkpt>
      <trkpt lat="42.71326" lon="1.43339">
        <ele>1140.24</ele>
        <time>2015-07-30T06:35:07Z</time>
      </trkpt>
      <trkpt lat="42.71325" lon="1.43314">
        <ele>1140.46</ele>
        <time>2015-07-30T06:35:59Z</time>
      </trkpt>
      <trkpt lat="42.71323" lon="1.43289">
        <ele>1140.21</ele>
        <time>2015-07-30T06:36:17Z</time>
      </trkpt>
      <trkpt lat="42.71323" lon="1.43264">
        <ele>1140.96</ele>
        <time>2015-07-30T06:36:34Z</time>
      </trkpt>
      <trkpt lat="42.7132" lon="1.43239">
        <ele>1146.56</ele>
        <time>2015-07-30T06:36:53Z</time>
      </trkpt>
      <trkpt lat="42.71313" lon="1.43216">
        <ele>1159.75</ele>
        <time>2015-07-30T06:37:16Z</time>
      </trkpt>
      <trkpt lat="42.71309" lon="1.43192">
        <ele>1159.91</ele>
        <time>2015-07-30T06:37:31Z</time>
      </trkpt>
      <trkpt lat="42.71304" lon="1.43167">
        <ele>1148.42</ele>
        <time>2015-07-30T06:37:45Z</time>
      </trkpt>
      <trkpt lat="42.71291" lon="1.43149">
        <ele>1138.38</ele>
        <time>2015-07-30T06:38:02Z</time>
      </trkpt>
      <trkpt lat="42.71279" lon="1.43131">
        <ele>1142.93</ele>
        <time>2015-07-30T06:38:18Z</time>
      </trkpt>
      <trkpt lat="42.71265" lon="1.43114">
        <ele>1139.8</ele>
        <time>2015-07-30T06:38:35Z</time>
      </trkpt>
      <trkpt lat="42.71249" lon="1.43103">
        <ele>1142.92</ele>
        <time>2015-07-30T06:38:52Z</time>
      </trkpt>
      <trkpt lat="42.71234" lon="1.4309">
        <ele>1142.24</ele>
        <time>2015-07-30T06:39:09Z</time>
      </trkpt>
      <trkpt lat="42.71219" lon="1.43075">
        <ele>1142.99</ele>
        <time>2015-07-30T06:39:27Z</time>
      </trkpt>
      <trkpt lat="42.71204" lon="1.43058">
        <ele>1148.55</ele>
        <time>2015-07-30T06:39:47Z</time>
      </trkpt>
      <trkpt lat="42.71189" lon="1.43043">
        <ele>1149.42</ele>
        <time>2015-07-30T06:40:08Z</time>
      </trkpt>
      <trkpt lat="42.71177" lon="1.43025">
        <ele>1153.56</ele>
        <time>2015-07-30T06:40:24Z</time>
      </trkpt>
      <trkpt lat="42.71163" lon="1.43009">
        <ele>1159.38</ele>
        <time>2015-07-30T06:40:41Z</time>
      </trkpt>
      <trkpt lat="42.71153" lon="1.42989">
        <ele>1163.17</ele>
        <time>2015-07-30T06:40:58Z</time>
      </trkpt>
      <trkpt lat="42.71144" lon="1.42968">
        <ele>1164.9</ele>
        <time>2015-07-30T06:41:15Z</time>
      </trkpt>
      <trkpt lat="42.71137" lon="1.42945">
        <ele>1165.08</ele>
        <time>2015-07-30T06:41:31Z</time>
      </trkpt>
      <trkpt lat="42.7113" lon="1.42921">
        <ele>1168.67</ele>
        <time>2015-07-30T06:41:49Z</time>
      </trkpt>
      <trkpt lat="42.71122" lon="1.42898">
        <ele>1165.31</ele>
        <time>2015-07-30T06:42:06Z</time>
      </trkpt>
      <trkpt lat="42.71116" lon="1.42874">
        <ele>1166.07</ele>
        <time>2015-07-30T06:42:23Z</time>
      </trkpt>
      <trkpt lat="42.7111" lon="1.4285">
        <ele>1165.45</ele>
        <time>2015-07-30T06:42:41Z</time>
      </trkpt>
      <trkpt lat="42.71103" lon="1.42826">
        <ele>1165.23</ele>
        <time>2015-07-30T06:42:58Z</time>
      </trkpt>
      <trkpt lat="42.71098" lon="1.42801">
        <ele>1165.71</ele>
        <time>2015-07-30T06:43:17Z</time>
      </trkpt>
      <trkpt lat="42.71091" lon="1.42778">
        <ele>1167.68</ele>
        <time>2015-07-30T06:43:36Z</time>
      </trkpt>
      <trkpt lat="42.71086" lon="1.42754">
        <ele>1170.2</ele>
        <time>2015-07-30T06:43:54Z</time>
      </trkpt>
      <trkpt lat="42.71082" lon="1.4273">
        <ele>1170.33</ele>
        <time>2015-07-30T06:44:12Z</time>
      </trkpt>
      <trkpt lat="42.71078" lon="1.42706">
        <ele>1174.58</ele>
        <time>2015-07-30T06:44:31Z</time>
      </trkpt>
      <trkpt lat="42.71077" lon="1.42681">
        <ele>1177.19</ele>
        <time>2015-07-30T06:44:50Z</time>
      </trkpt>
      <trkpt lat="42.71073" lon="1.42657">
        <ele>1181.81</ele>
        <time>2015-07-30T06:45:11Z</time>
      </trkpt>
      <trkpt lat="42.71068" lon="1.42633">
        <ele>1184.39</ele>
        <time>2015-07-30T06:45:31Z</time>
      </trkpt>
      <trkpt lat="42.71063" lon="1.4261">
        <ele>1188.81</ele>
        <time>2015-07-30T06:45:50Z</time>
      </trkpt>
      <trkpt lat="42.71058" lon="1.42585">
        <ele>1183.18</ele>
        <time>2015-07-30T06:46:09Z</time>
      </trkpt>
      <trkpt lat="42.71054" lon="1.42561">
        <ele>1183.92</ele>
        <time>2015-07-30T06:46:29Z</time>
      </trkpt>
      <trkpt lat="42.71049" lon="1.42537">
        <ele>1184.31</ele>
        <time>2015-07-30T06:46:49Z</time>
      </trkpt>
      <trkpt lat="42.71039" lon="1.42516">
        <ele>1181.19</ele>
        <time>2015-07-30T06:47:04Z</time>
      </trkpt>
      <trkpt lat="42.71031" lon="1.42493">
        <ele>1184.1</ele>
        <time>2015-07-30T06:47:19Z</time>
      </trkpt>
      <trkpt lat="42.71021" lon="1.42473">
        <ele>1184.59</ele>
        <time>2015-07-30T06:47:37Z</time>
      </trkpt>
      <trkpt lat="42.71011" lon="1.42451">
        <ele>1181.91</ele>
        <time>2015-07-30T06:50:35Z</time>
      </trkpt>
      <trkpt lat="42.71003" lon="1.42429">
        <ele>1178.42</ele>
        <time>2015-07-30T06:50:56Z</time>
      </trkpt>
      <trkpt lat="42.70997" lon="1.42404">
        <ele>1177.6</ele>
        <time>2015-07-30T06:51:13Z</time>
      </trkpt>
      <trkpt lat="42.70991" lon="1.42381">
        <ele>1177.87</ele>
        <time>2015-07-30T06:51:26Z</time>
      </trkpt>
      <trkpt lat="42.70985" lon="1.42357">
        <ele>1183.57</ele>
        <time>2015-07-30T06:51:44Z</time>
      </trkpt>
      <trkpt lat="42.70978" lon="1.42333">
        <ele>1180.59</ele>
        <time>2015-07-30T06:51:59Z</time>
      </trkpt>
      <trkpt lat="42.7097" lon="1.4231">
        <ele>1177.48</ele>
        <time>2015-07-30T06:52:14Z</time>
      </trkpt>
      <trkpt lat="42.70967" lon="1.42285">
        <ele>1181.28</ele>
        <time>2015-07-30T06:52:29Z</time>
      </trkpt>
      <trkpt lat="42.70967" lon="1.4226">
        <ele>1176.34</ele>
        <time>2015-07-30T06:52:47Z</time>
      </trkpt>
      <trkpt lat="42.70961" lon="1.42237">
        <ele>1174.74</ele>
        <time>2015-07-30T06:53:04Z</time>
      </trkpt>
      <trkpt lat="42.70958" lon="1.42212">
        <ele>1175.22</ele>
        <time>2015-07-30T06:53:16Z</time>
      </trkpt>
      <trkpt lat="42.70956" lon="1.42185">
        <ele>1177.75</ele>
        <time>2015-07-30T06:53:35Z</time>
      </trkpt>
      <trkpt lat="42.70948" lon="1.42163">
        <ele>1184.13</ele>
        <time>2015-07-30T06:53:56Z</time>
      </trkpt>
      <trkpt lat="42.70941" lon="1.42141">
        <ele>1195.89</ele>
        <time>2015-07-30T06:54:24Z</time>
      </trkpt>
      <trkpt lat="42.7094" lon="1.42115">
        <ele>1184.33</ele>
        <time>2015-07-30T06:54:43Z</time>
      </trkpt>
      <trkpt lat="42.70934" lon="1.42091">
        <ele>1187.09</ele>
        <time>2015-07-30T06:55:14Z</time>
      </trkpt>
      <trkpt lat="42.70948" lon="1.42109">
        <ele>1193.53</ele>
        <time>2015-07-30T06:56:03Z</time>
      </trkpt>
      <trkpt lat="42.70959" lon="1.42129">
        <ele>1207.98</ele>
        <time>2015-07-30T06:56:30Z</time>
      </trkpt>
      <trkpt lat="42.70968" lon="1.42152">
        <ele>1206.01</ele>
        <time>2015-07-30T06:56:52Z</time>
      </trkpt>
      <trkpt lat="42.70974" lon="1.42177">
        <ele>1203.89</ele>
        <time>2015-07-30T06:57:14Z</time>
      </trkpt>
      <trkpt lat="42.70979" lon="1.42202">
        <ele>1206.2</ele>
        <time>2015-07-30T06:57:34Z</time>
      </trkpt>
      <trkpt lat="42.70983" lon="1.42227">
        <ele>1208.89</ele>
        <time>2015-07-30T06:57:54Z</time>
      </trkpt>
      <trkpt lat="42.70987" lon="1.42253">
        <ele>1204.09</ele>
        <time>2015-07-30T06:58:27Z</time>
      </trkpt>
      <trkpt lat="42.70992" lon="1.42276">
        <ele>1207.88</ele>
        <time>2015-07-30T06:58:56Z</time>
      </trkpt>
      <trkpt lat="42.71006" lon="1.42293">
        <ele>1202.42</ele>
        <time>2015-07-30T06:59:17Z</time>
      </trkpt>
      <trkpt lat="42.71011" lon="1.42269">
        <ele>1217.13</ele>
        <time>2015-07-30T07:00:20Z</time>
      </trkpt>
      <trkpt lat="42.71011" lon="1.42244">
        <ele>1223.58</ele>
        <time>2015-07-30T07:01:06Z</time>
      </trkpt>
      <trkpt lat="42.71016" lon="1.4222">
        <ele>1231.14</ele>
        <time>2015-07-30T07:02:17Z</time>
      </trkpt>
      <trkpt lat="42.71023" lon="1.42198">
        <ele>1240.83</ele>
        <time>2015-07-30T07:03:02Z</time>
      </trkpt>
      <trkpt lat="42.71025" lon="1.42173">
        <ele>1248.92</ele>
        <time>2015-07-30T07:03:56Z</time>
      </trkpt>
      <trkpt lat="42.71032" lon="1.4215">
        <ele>1258.44</ele>
        <time>2015-07-30T07:04:50Z</time>
      </trkpt>
      <trkpt lat="42.71035" lon="1.42124">
        <ele>1270.47</ele>
        <time>2015-07-30T07:05:55Z</time>
      </trkpt>
      <trkpt lat="42.71037" lon="1.42099">
        <ele>1271.37</ele>
        <time>2015-07-30T07:06:33Z</time>
      </trkpt>
      <trkpt lat="42.7104" lon="1.42075">
        <ele>1279.08</ele>
        <time>2015-07-30T07:07:03Z</time>
      </trkpt>
      <trkpt lat="42.71044" lon="1.4205">
        <ele>1282.77</ele>
        <time>2015-07-30T07:07:39Z</time>
      </trkpt>
      <trkpt lat="42.7105" lon="1.42026">
        <ele>1285.94</ele>
        <time>2015-07-30T07:08:09Z</time>
      </trkpt>
      <trkpt lat="42.71055" lon="1.42002">
        <ele>1290.99</ele>
        <time>2015-07-30T07:08:50Z</time>
      </trkpt>
      <trkpt lat="42.71063" lon="1.4198">
        <ele>1295.95</ele>
        <time>2015-07-30T07:09:29Z</time>
      </trkpt>
      <trkpt lat="42.71069" lon="1.41956">
        <ele>1305.16</ele>
        <time>2015-07-30T07:10:06Z</time>
      </trkpt>
      <trkpt lat="42.71069" lon="1.41931">
        <ele>1320.19</ele>
        <time>2015-07-30T07:10:45Z</time>
      </trkpt>
      <trkpt lat="42.71075" lon="1.41906">
        <ele>1318.6</ele>
        <time>2015-07-30T07:11:28Z</time>
      </trkpt>
      <trkpt lat="42.71084" lon="1.41883">
        <ele>1322.19</ele>
        <time>2015-07-30T07:12:14Z</time>
      </trkpt>
      <trkpt lat="42.71092" lon="1.41861">
        <ele>1328.57</ele>
        <time>2015-07-30T07:13:03Z</time>
      </trkpt>
      <trkpt lat="42.711" lon="1.41839">
        <ele>1334.16</ele>
        <time>2015-07-30T07:13:39Z</time>
      </trkpt>
      <trkpt lat="42.71108" lon="1.41817">
        <ele>1338.96</ele>
        <time>2015-07-30T07:14:15Z</time>
      </trkpt>
      <trkpt lat="42.71114" lon="1.41793">
        <ele>1340.65</ele>
        <time>2015-07-30T07:14:55Z</time>
      </trkpt>
      <trkpt lat="42.71122" lon="1.41771">
        <ele>1346.91</ele>
        <time>2015-07-30T07:15:29Z</time>
      </trkpt>
      <trkpt lat="42.71128" lon="1.41748">
        <ele>1353.02</ele>
        <time>2015-07-30T07:15:59Z</time>
      </trkpt>
      <trkpt lat="42.71136" lon="1.41725">
        <ele>1357.2</ele>
        <time>2015-07-30T07:16:35Z</time>
      </trkpt>
      <trkpt lat="42.71145" lon="1.41703">
        <ele>1363.14</ele>
        <time>2015-07-30T07:17:02Z</time>
      </trkpt>
      <trkpt lat="42.71149" lon="1.41679">
        <ele>1361.9</ele>
        <time>2015-07-30T07:17:24Z</time>
      </trkpt>
      <trkpt lat="42.71148" lon="1.41654">
        <ele>1365.37</ele>
        <time>2015-07-30T07:17:52Z</time>
      </trkpt>
      <trkpt lat="42.71147" lon="1.41629">
        <ele>1366.62</ele>
        <time>2015-07-30T07:18:13Z</time>
      </trkpt>
      <trkpt lat="42.71151" lon="1.41605">
        <ele>1371.02</ele>
        <time>2015-07-30T07:18:35Z</time>
      </trkpt>
      <trkpt lat="42.7116" lon="1.41583">
        <ele>1369.65</ele>
        <time>2015-07-30T07:19:03Z</time>
      </trkpt>
      <trkpt lat="42.71154" lon="1.41558">
        <ele>1377.07</ele>
        <time>2015-07-30T07:19:28Z</time>
      </trkpt>
      <trkpt lat="42.71153" lon="1.41532">
        <ele>1379.22</ele>
        <time>2015-07-30T07:19:57Z</time>
      </trkpt>
      <trkpt lat="42.71151" lon="1.41507">
        <ele>1382.64</ele>
        <time>2015-07-30T07:20:20Z</time>
      </trkpt>
      <trkpt lat="42.7115" lon="1.41482">
        <ele>1383.9</ele>
        <time>2015-07-30T07:20:41Z</time>
      </trkpt>
      <trkpt lat="42.71153" lon="1.41457">
        <ele>1389.4</ele>
        <time>2015-07-30T07:21:06Z</time>
      </trkpt>
      <trkpt lat="42.71162" lon="1.41435">
        <ele>1385.01</ele>
        <time>2015-07-30T07:21:30Z</time>
      </trkpt>
      <trkpt lat="42.71167" lon="1.4141">
        <ele>1395.38</ele>
        <time>2015-07-30T07:22:00Z</time>
      </trkpt>
      <trkpt lat="42.71167" lon="1.41385">
        <ele>1401.09</ele>
        <time>2015-07-30T07:22:23Z</time>
      </trkpt>
      <trkpt lat="42.7117" lon="1.4136">
        <ele>1405.88</ele>
        <time>2015-07-30T07:22:46Z</time>
      </trkpt>
      <trkpt lat="42.71173" lon="1.41336">
        <ele>1400.84</ele>
        <time>2015-07-30T07:23:08Z</time>
      </trkpt>
      <trkpt lat="42.7118" lon="1.41312">
        <ele>1401.7</ele>
        <time>2015-07-30T07:23:30Z</time>
      </trkpt>
      <trkpt lat="42.71186" lon="1.41289">
        <ele>1400.29</ele>
        <time>2015-07-30T07:23:45Z</time>
      </trkpt>
      <trkpt lat="42.71195" lon="1.41267">
        <ele>1398.35</ele>
        <time>2015-07-30T07:24:05Z</time>
      </trkpt>
      <trkpt lat="42.71205" lon="1.41246">
        <ele>1410.18</ele>
        <time>2015-07-30T07:24:31Z</time>
      </trkpt>
      <trkpt lat="42.71219" lon="1.4123">
        <ele>1411.19</ele>
        <time>2015-07-30T07:25:11Z</time>
      </trkpt>
      <trkpt lat="42.71234" lon="1.41216">
        <ele>1408.49</ele>
        <time>2015-07-30T07:25:29Z</time>
      </trkpt>
      <trkpt lat="42.71249" lon="1.41202">
        <ele>1404.76</ele>
        <time>2015-07-30T07:25:48Z</time>
      </trkpt>
      <trkpt lat="42.71265" lon="1.41188">
        <ele>1406.87</ele>
        <time>2015-07-30T07:26:08Z</time>
      </trkpt>
      <trkpt lat="42.71259" lon="1.41165">
        <ele>1413.34</ele>
        <time>2015-07-30T07:26:46Z</time>
      </trkpt>
      <trkpt lat="42.71249" lon="1.41144">
        <ele>1410.73</ele>
        <time>2015-07-30T07:27:09Z</time>
      </trkpt>
      <trkpt lat="42.71239" lon="1.41124">
        <ele>1419.4</ele>
        <time>2015-07-30T07:27:33Z</time>
      </trkpt>
      <trkpt lat="42.71238" lon="1.41099">
        <ele>1414.18</ele>
        <time>2015-07-30T07:27:50Z</time>
      </trkpt>
      <trkpt lat="42.71235" lon="1.41074">
        <ele>1416.07</ele>
        <time>2015-07-30T07:28:11Z</time>
      </trkpt>
      <trkpt lat="42.71235" lon="1.41049">
        <ele>1424.84</ele>
        <time>2015-07-30T07:28:38Z</time>
      </trkpt>
      <trkpt lat="42.71245" lon="1.41028">
        <ele>1420.47</ele>
        <time>2015-07-30T07:28:55Z</time>
      </trkpt>
      <trkpt lat="42.71255" lon="1.41007">
        <ele>1414.73</ele>
        <time>2015-07-30T07:29:33Z</time>
      </trkpt>
      <trkpt lat="42.71247" lon="1.40984">
        <ele>1421.21</ele>
        <time>2015-07-30T07:30:05Z</time>
      </trkpt>
      <trkpt lat="42.71237" lon="1.40962">
        <ele>1423.08</ele>
        <time>2015-07-30T07:30:28Z</time>
      </trkpt>
      <trkpt lat="42.71231" lon="1.40939">
        <ele>1425.45</ele>
        <time>2015-07-30T07:30:49Z</time>
      </trkpt>
      <trkpt lat="42.71224" lon="1.40916">
        <ele>1425.96</ele>
        <time>2015-07-30T07:31:08Z</time>
      </trkpt>
      <trkpt lat="42.71216" lon="1.40894">
        <ele>1425.19</ele>
        <time>2015-07-30T07:31:27Z</time>
      </trkpt>
      <trkpt lat="42.71209" lon="1.40871">
        <ele>1429.21</ele>
        <time>2015-07-30T07:31:51Z</time>
      </trkpt>
      <trkpt lat="42.71199" lon="1.4085">
        <ele>1431.21</ele>
        <time>2015-07-30T07:32:10Z</time>
      </trkpt>
      <trkpt lat="42.71191" lon="1.40827">
        <ele>1431.11</ele>
        <time>2015-07-30T07:32:29Z</time>
      </trkpt>
      <trkpt lat="42.7118" lon="1.40808">
        <ele>1426.72</ele>
        <time>2015-07-30T07:32:50Z</time>
      </trkpt>
      <trkpt lat="42.7117" lon="1.40787">
        <ele>1427.07</ele>
        <time>2015-07-30T07:33:10Z</time>
      </trkpt>
      <trkpt lat="42.7116" lon="1.40766">
        <ele>1426.74</ele>
        <time>2015-07-30T07:33:33Z</time>
      </trkpt>
      <trkpt lat="42.71151" lon="1.40744">
        <ele>1424.19</ele>
        <time>2015-07-30T07:33:57Z</time>
      </trkpt>
      <trkpt lat="42.71137" lon="1.40727">
        <ele>1425.71</ele>
        <time>2015-07-30T07:34:19Z</time>
      </trkpt>
      <trkpt lat="42.71132" lon="1.40703">
        <ele>1425.08</ele>
        <time>2015-07-30T07:34:42Z</time>
      </trkpt>
      <trkpt lat="42.71126" lon="1.40679">
        <ele>1426.16</ele>
        <time>2015-07-30T07:35:05Z</time>
      </trkpt>
      <trkpt lat="42.71121" lon="1.40655">
        <ele>1424.35</ele>
        <time>2015-07-30T07:35:23Z</time>
      </trkpt>
      <trkpt lat="42.71118" lon="1.40631">
        <ele>1428.2</ele>
        <time>2015-07-30T07:35:46Z</time>
      </trkpt>
      <trkpt lat="42.71118" lon="1.40606">
        <ele>1428.46</ele>
        <time>2015-07-30T07:36:09Z</time>
      </trkpt>
      <trkpt lat="42.71116" lon="1.40581">
        <ele>1427.33</ele>
        <time>2015-07-30T07:36:32Z</time>
      </trkpt>
      <trkpt lat="42.71118" lon="1.40556">
        <ele>1424.31</ele>
        <time>2015-07-30T07:36:51Z</time>
      </trkpt>
      <trkpt lat="42.71118" lon="1.40531">
        <ele>1421.46</ele>
        <time>2015-07-30T07:37:13Z</time>
      </trkpt>
      <trkpt lat="42.7112" lon="1.40507">
        <ele>1417.51</ele>
        <time>2015-07-30T07:37:33Z</time>
      </trkpt>
      <trkpt lat="42.71125" lon="1.40482">
        <ele>1417.21</ele>
        <time>2015-07-30T07:37:52Z</time>
      </trkpt>
      <trkpt lat="42.71128" lon="1.40458">
        <ele>1414.25</ele>
        <time>2015-07-30T07:38:13Z</time>
      </trkpt>
      <trkpt lat="42.71133" lon="1.40434">
        <ele>1424.63</ele>
        <time>2015-07-30T07:39:59Z</time>
      </trkpt>
      <trkpt lat="42.71137" lon="1.40408">
        <ele>1427.25</ele>
        <time>2015-07-30T07:40:18Z</time>
      </trkpt>
      <trkpt lat="42.71149" lon="1.4039">
        <ele>1421.58</ele>
        <time>2015-07-30T07:40:41Z</time>
      </trkpt>
      <trkpt lat="42.71154" lon="1.40366">
        <ele>1415.38</ele>
        <time>2015-07-30T07:41:16Z</time>
      </trkpt>
      <trkpt lat="42.71169" lon="1.40349">
        <ele>1413.18</ele>
        <time>2015-07-30T07:41:35Z</time>
      </trkpt>
      <trkpt lat="42.71184" lon="1.40335">
        <ele>1412.7</ele>
        <time>2015-07-30T07:41:54Z</time>
      </trkpt>
      <trkpt lat="42.71202" lon="1.40323">
        <ele>1413.82</ele>
        <time>2015-07-30T07:42:15Z</time>
      </trkpt>
      <trkpt lat="42.71218" lon="1.40311">
        <ele>1413.45</ele>
        <time>2015-07-30T07:42:35Z</time>
      </trkpt>
      <trkpt lat="42.71232" lon="1.40295">
        <ele>1413.7</ele>
        <time>2015-07-30T07:42:55Z</time>
      </trkpt>
      <trkpt lat="42.71247" lon="1.40283">
        <ele>1414.92</ele>
        <time>2015-07-30T07:43:14Z</time>
      </trkpt>
      <trkpt lat="42.71247" lon="1.40258">
        <ele>1415.58</ele>
        <time>2015-07-30T07:43:40Z</time>
      </trkpt>
      <trkpt lat="42.71264" lon="1.40248">
        <ele>1414.55</ele>
        <time>2015-07-30T07:44:06Z</time>
      </trkpt>
      <trkpt lat="42.71279" lon="1.40234">
        <ele>1414.21</ele>
        <time>2015-07-30T07:44:44Z</time>
      </trkpt>
      <trkpt lat="42.71289" lon="1.40213">
        <ele>1422.31</ele>
        <time>2015-07-30T07:45:28Z</time>
      </trkpt>
      <trkpt lat="42.71307" lon="1.40206">
        <ele>1423.8</ele>
        <time>2015-07-30T07:46:13Z</time>
      </trkpt>
      <trkpt lat="42.71322" lon="1.4019">
        <ele>1434.55</ele>
        <time>2015-07-30T07:46:44Z</time>
      </trkpt>
      <trkpt lat="42.71338" lon="1.4018">
        <ele>1437.71</ele>
        <time>2015-07-30T07:47:16Z</time>
      </trkpt>
      <trkpt lat="42.71356" lon="1.4018">
        <ele>1438.02</ele>
        <time>2015-07-30T07:47:42Z</time>
      </trkpt>
      <trkpt lat="42.71374" lon="1.40175">
        <ele>1442.05</ele>
        <time>2015-07-30T07:48:17Z</time>
      </trkpt>
      <trkpt lat="42.7139" lon="1.40162">
        <ele>1441.66</ele>
        <time>2015-07-30T07:48:46Z</time>
      </trkpt>
      <trkpt lat="42.71397" lon="1.40139">
        <ele>1443.71</ele>
        <time>2015-07-30T07:49:17Z</time>
      </trkpt>
      <trkpt lat="42.71403" lon="1.40115">
        <ele>1452.46</ele>
        <time>2015-07-30T07:49:49Z</time>
      </trkpt>
      <trkpt lat="42.71417" lon="1.401">
        <ele>1456.91</ele>
        <time>2015-07-30T07:50:23Z</time>
      </trkpt>
      <trkpt lat="42.7143" lon="1.40084">
        <ele>1463.46</ele>
        <time>2015-07-30T07:50:59Z</time>
      </trkpt>
      <trkpt lat="42.71443" lon="1.40067">
        <ele>1469.89</ele>
        <time>2015-07-30T07:51:35Z</time>
      </trkpt>
      <trkpt lat="42.7146" lon="1.40056">
        <ele>1473.19</ele>
        <time>2015-07-30T07:52:09Z</time>
      </trkpt>
      <trkpt lat="42.71473" lon="1.40038">
        <ele>1477.14</ele>
        <time>2015-07-30T07:52:40Z</time>
      </trkpt>
      <trkpt lat="42.71485" lon="1.4002">
        <ele>1482.17</ele>
        <time>2015-07-30T07:53:12Z</time>
      </trkpt>
      <trkpt lat="42.71503" lon="1.40017">
        <ele>1485.96</ele>
        <time>2015-07-30T07:53:43Z</time>
      </trkpt>
      <trkpt lat="42.71516" lon="1.39999">
        <ele>1488.08</ele>
        <time>2015-07-30T07:54:17Z</time>
      </trkpt>
      <trkpt lat="42.71526" lon="1.39978">
        <ele>1493.14</ele>
        <time>2015-07-30T07:54:45Z</time>
      </trkpt>
      <trkpt lat="42.71536" lon="1.39956">
        <ele>1483.43</ele>
        <time>2015-07-30T07:57:45Z</time>
      </trkpt>
      <trkpt lat="42.71544" lon="1.39933">
        <ele>1489.71</ele>
        <time>2015-07-30T07:58:08Z</time>
      </trkpt>
      <trkpt lat="42.71559" lon="1.39919">
        <ele>1500.05</ele>
        <time>2015-07-30T07:58:39Z</time>
      </trkpt>
      <trkpt lat="42.71555" lon="1.39894">
        <ele>1509.07</ele>
        <time>2015-07-30T07:59:20Z</time>
      </trkpt>
      <trkpt lat="42.71557" lon="1.39869">
        <ele>1516.71</ele>
        <time>2015-07-30T08:00:13Z</time>
      </trkpt>
      <trkpt lat="42.71549" lon="1.39846">
        <ele>1524.21</ele>
        <time>2015-07-30T08:01:11Z</time>
      </trkpt>
      <trkpt lat="42.71557" lon="1.39824">
        <ele>1532.22</ele>
        <time>2015-07-30T08:02:32Z</time>
      </trkpt>
      <trkpt lat="42.71549" lon="1.39802">
        <ele>1547.14</ele>
        <time>2015-07-30T08:04:09Z</time>
      </trkpt>
      <trkpt lat="42.71564" lon="1.39787">
        <ele>1552.83</ele>
        <time>2015-07-30T08:05:14Z</time>
      </trkpt>
      <trkpt lat="42.71549" lon="1.39771">
        <ele>1560.2</ele>
        <time>2015-07-30T08:06:57Z</time>
      </trkpt>
      <trkpt lat="42.71534" lon="1.39758">
        <ele>1571.14</ele>
        <time>2015-07-30T08:08:07Z</time>
      </trkpt>
      <trkpt lat="42.71545" lon="1.39738">
        <ele>1579.18</ele>
        <time>2015-07-30T08:09:07Z</time>
      </trkpt>
      <trkpt lat="42.71563" lon="1.39738">
        <ele>1584.96</ele>
        <time>2015-07-30T08:09:53Z</time>
      </trkpt>
      <trkpt lat="42.71557" lon="1.39715">
        <ele>1593.95</ele>
        <time>2015-07-30T08:10:50Z</time>
      </trkpt>
      <trkpt lat="42.71571" lon="1.39699">
        <ele>1605.96</ele>
        <time>2015-07-30T08:12:28Z</time>
      </trkpt>
      <trkpt lat="42.71556" lon="1.39685">
        <ele>1610.71</ele>
        <time>2015-07-30T08:13:07Z</time>
      </trkpt>
      <trkpt lat="42.71539" lon="1.39677">
        <ele>1616.19</ele>
        <time>2015-07-30T08:13:44Z</time>
      </trkpt>
      <trkpt lat="42.71523" lon="1.39665">
        <ele>1624.14</ele>
        <time>2015-07-30T08:14:46Z</time>
      </trkpt>
      <trkpt lat="42.7152" lon="1.39641">
        <ele>1631.15</ele>
        <time>2015-07-30T08:15:42Z</time>
      </trkpt>
      <trkpt lat="42.71518" lon="1.39616">
        <ele>1636.15</ele>
        <time>2015-07-30T08:16:27Z</time>
      </trkpt>
      <trkpt lat="42.71515" lon="1.39592">
        <ele>1643.08</ele>
        <time>2015-07-30T08:17:06Z</time>
      </trkpt>
      <trkpt lat="42.7151" lon="1.39568">
        <ele>1646.21</ele>
        <time>2015-07-30T08:17:46Z</time>
      </trkpt>
      <trkpt lat="42.71502" lon="1.39545">
        <ele>1650.21</ele>
        <time>2015-07-30T08:18:19Z</time>
      </trkpt>
      <trkpt lat="42.71499" lon="1.39521">
        <ele>1651.22</ele>
        <time>2015-07-30T08:18:50Z</time>
      </trkpt>
      <trkpt lat="42.71494" lon="1.39497">
        <ele>1653.68</ele>
        <time>2015-07-30T08:19:23Z</time>
      </trkpt>
      <trkpt lat="42.71489" lon="1.39473">
        <ele>1661.69</ele>
        <time>2015-07-30T08:20:04Z</time>
      </trkpt>
      <trkpt lat="42.71487" lon="1.39448">
        <ele>1667.17</ele>
        <time>2015-07-30T08:20:39Z</time>
      </trkpt>
      <trkpt lat="42.71479" lon="1.39425">
        <ele>1674.95</ele>
        <time>2015-07-30T08:21:36Z</time>
      </trkpt>
      <trkpt lat="42.71471" lon="1.39403">
        <ele>1680.21</ele>
        <time>2015-07-30T08:22:19Z</time>
      </trkpt>
      <trkpt lat="42.71458" lon="1.39385">
        <ele>1684.2</ele>
        <time>2015-07-30T08:22:50Z</time>
      </trkpt>
      <trkpt lat="42.71445" lon="1.39367">
        <ele>1685.21</ele>
        <time>2015-07-30T08:23:21Z</time>
      </trkpt>
      <trkpt lat="42.71434" lon="1.39347">
        <ele>1686.21</ele>
        <time>2015-07-30T08:23:43Z</time>
      </trkpt>
      <trkpt lat="42.71426" lon="1.39324">
        <ele>1688.2</ele>
        <time>2015-07-30T08:24:06Z</time>
      </trkpt>
      <trkpt lat="42.71416" lon="1.39303">
        <ele>1691.2</ele>
        <time>2015-07-30T08:24:32Z</time>
      </trkpt>
      <trkpt lat="42.71414" lon="1.39279">
        <ele>1693.18</ele>
        <time>2015-07-30T08:25:00Z</time>
      </trkpt>
      <trkpt lat="42.71414" lon="1.39254">
        <ele>1692.71</ele>
        <time>2015-07-30T08:25:24Z</time>
      </trkpt>
      <trkpt lat="42.71412" lon="1.3923">
        <ele>1694.05</ele>
        <time>2015-07-30T08:25:46Z</time>
      </trkpt>
      <trkpt lat="42.71407" lon="1.39206">
        <ele>1693.21</ele>
        <time>2015-07-30T08:27:21Z</time>
      </trkpt>
      <trkpt lat="42.71402" lon="1.39182">
        <ele>1692.21</ele>
        <time>2015-07-30T08:27:41Z</time>
      </trkpt>
      <trkpt lat="42.71392" lon="1.39161">
        <ele>1691.71</ele>
        <time>2015-07-30T08:28:02Z</time>
      </trkpt>
      <trkpt lat="42.7138" lon="1.39141">
        <ele>1691.21</ele>
        <time>2015-07-30T08:28:30Z</time>
      </trkpt>
      <trkpt lat="42.71376" lon="1.39116">
        <ele>1693.17</ele>
        <time>2015-07-30T08:28:55Z</time>
      </trkpt>
      <trkpt lat="42.71372" lon="1.39092">
        <ele>1694.15</ele>
        <time>2015-07-30T08:32:43Z</time>
      </trkpt>
      <trkpt lat="42.71379" lon="1.39068">
        <ele>1696.15</ele>
        <time>2015-07-30T08:33:10Z</time>
      </trkpt>
      <trkpt lat="42.71381" lon="1.39043">
        <ele>1700.2</ele>
        <time>2015-07-30T08:33:46Z</time>
      </trkpt>
      <trkpt lat="42.71381" lon="1.39018">
        <ele>1701.08</ele>
        <time>2015-07-30T08:34:18Z</time>
      </trkpt>
      <trkpt lat="42.71379" lon="1.38993">
        <ele>1703.2</ele>
        <time>2015-07-30T08:34:43Z</time>
      </trkpt>
      <trkpt lat="42.71377" lon="1.38968">
        <ele>1704.72</ele>
        <time>2015-07-30T08:35:07Z</time>
      </trkpt>
      <trkpt lat="42.71374" lon="1.38943">
        <ele>1710.08</ele>
        <time>2015-07-30T08:35:38Z</time>
      </trkpt>
      <trkpt lat="42.71372" lon="1.38918">
        <ele>1715.08</ele>
        <time>2015-07-30T08:36:11Z</time>
      </trkpt>
      <trkpt lat="42.71371" lon="1.38892">
        <ele>1713.72</ele>
        <time>2015-07-30T08:36:35Z</time>
      </trkpt>
      <trkpt lat="42.71369" lon="1.38868">
        <ele>1713.21</ele>
        <time>2015-07-30T08:36:54Z</time>
      </trkpt>
      <trkpt lat="42.71362" lon="1.38844">
        <ele>1715.16</ele>
        <time>2015-07-30T08:37:18Z</time>
      </trkpt>
      <trkpt lat="42.71359" lon="1.3882">
        <ele>1718.2</ele>
        <time>2015-07-30T08:37:43Z</time>
      </trkpt>
      <trkpt lat="42.71354" lon="1.38796">
        <ele>1723.7</ele>
        <time>2015-07-30T08:38:21Z</time>
      </trkpt>
      <trkpt lat="42.71352" lon="1.38771">
        <ele>1725.21</ele>
        <time>2015-07-30T08:38:44Z</time>
      </trkpt>
      <trkpt lat="42.71347" lon="1.38748">
        <ele>1731.15</ele>
        <time>2015-07-30T08:39:24Z</time>
      </trkpt>
      <trkpt lat="42.71342" lon="1.38724">
        <ele>1735.44</ele>
        <time>2015-07-30T08:40:09Z</time>
      </trkpt>
      <trkpt lat="42.71331" lon="1.38704">
        <ele>1742.33</ele>
        <time>2015-07-30T08:40:53Z</time>
      </trkpt>
      <trkpt lat="42.71324" lon="1.38681">
        <ele>1746.18</ele>
        <time>2015-07-30T08:41:28Z</time>
      </trkpt>
      <trkpt lat="42.7131" lon="1.38666">
        <ele>1754.17</ele>
        <time>2015-07-30T08:42:14Z</time>
      </trkpt>
      <trkpt lat="42.71294" lon="1.38653">
        <ele>1757.11</ele>
        <time>2015-07-30T08:42:48Z</time>
      </trkpt>
      <trkpt lat="42.71283" lon="1.38633">
        <ele>1763.71</ele>
        <time>2015-07-30T08:43:24Z</time>
      </trkpt>
      <trkpt lat="42.71276" lon="1.3861">
        <ele>1770.08</ele>
        <time>2015-07-30T08:44:04Z</time>
      </trkpt>
      <trkpt lat="42.71271" lon="1.38586">
        <ele>1772.21</ele>
        <time>2015-07-30T08:44:52Z</time>
      </trkpt>
      <trkpt lat="42.71263" lon="1.38564">
        <ele>1775.99</ele>
        <time>2015-07-30T08:45:22Z</time>
      </trkpt>
      <trkpt lat="42.71248" lon="1.38549">
        <ele>1776.71</ele>
        <time>2015-07-30T08:45:55Z</time>
      </trkpt>
      <trkpt lat="42.71237" lon="1.38529">
        <ele>1780.21</ele>
        <time>2015-07-30T08:46:22Z</time>
      </trkpt>
      <trkpt lat="42.71228" lon="1.38507">
        <ele>1785.2</ele>
        <time>2015-07-30T08:46:55Z</time>
      </trkpt>
      <trkpt lat="42.71218" lon="1.38487">
        <ele>1786.21</ele>
        <time>2015-07-30T08:47:21Z</time>
      </trkpt>
      <trkpt lat="42.71212" lon="1.38464">
        <ele>1790.05</ele>
        <time>2015-07-30T08:47:51Z</time>
      </trkpt>
      <trkpt lat="42.71207" lon="1.38439">
        <ele>1794.21</ele>
        <time>2015-07-30T08:48:23Z</time>
      </trkpt>
      <trkpt lat="42.712" lon="1.38415">
        <ele>1794.83</ele>
        <time>2015-07-30T08:48:54Z</time>
      </trkpt>
      <trkpt lat="42.71195" lon="1.38392">
        <ele>1797.96</ele>
        <time>2015-07-30T08:49:24Z</time>
      </trkpt>
      <trkpt lat="42.71196" lon="1.38367">
        <ele>1801.2</ele>
        <time>2015-07-30T08:50:07Z</time>
      </trkpt>
      <trkpt lat="42.71197" lon="1.38342">
        <ele>1801.22</ele>
        <time>2015-07-30T08:50:32Z</time>
      </trkpt>
      <trkpt lat="42.71187" lon="1.38321">
        <ele>1801.69</ele>
        <time>2015-07-30T08:50:59Z</time>
      </trkpt>
      <trkpt lat="42.71186" lon="1.38295">
        <ele>1803.65</ele>
        <time>2015-07-30T08:51:56Z</time>
      </trkpt>
      <trkpt lat="42.71182" lon="1.38271">
        <ele>1805.22</ele>
        <time>2015-07-30T08:52:23Z</time>
      </trkpt>
      <trkpt lat="42.71178" lon="1.38246">
        <ele>1807.96</ele>
        <time>2015-07-30T08:52:54Z</time>
      </trkpt>
      <trkpt lat="42.71178" lon="1.38222">
        <ele>1816.64</ele>
        <time>2015-07-30T08:53:39Z</time>
      </trkpt>
      <trkpt lat="42.71173" lon="1.38198">
        <ele>1823.17</ele>
        <time>2015-07-30T08:54:41Z</time>
      </trkpt>
      <trkpt lat="42.71163" lon="1.38177">
        <ele>1832.95</ele>
        <time>2015-07-30T08:55:38Z</time>
      </trkpt>
      <trkpt lat="42.7115" lon="1.3816">
        <ele>1837.68</ele>
        <time>2015-07-30T08:56:10Z</time>
      </trkpt>
      <trkpt lat="42.71143" lon="1.38137">
        <ele>1838.19</ele>
        <time>2015-07-30T08:56:48Z</time>
      </trkpt>
      <trkpt lat="42.71134" lon="1.38116">
        <ele>1841.7</ele>
        <time>2015-07-30T08:57:28Z</time>
      </trkpt>
      <trkpt lat="42.71122" lon="1.38097">
        <ele>1851.18</ele>
        <time>2015-07-30T08:58:27Z</time>
      </trkpt>
      <trkpt lat="42.71122" lon="1.38072">
        <ele>1863.21</ele>
        <time>2015-07-30T09:01:45Z</time>
      </trkpt>
      <trkpt lat="42.71116" lon="1.38048">
        <ele>1865.47</ele>
        <time>2015-07-30T09:02:21Z</time>
      </trkpt>
      <trkpt lat="42.71108" lon="1.38026">
        <ele>1870.33</ele>
        <time>2015-07-30T09:03:02Z</time>
      </trkpt>
      <trkpt lat="42.71094" lon="1.38009">
        <ele>1876.96</ele>
        <time>2015-07-30T09:03:45Z</time>
      </trkpt>
      <trkpt lat="42.71084" lon="1.37988">
        <ele>1876.74</ele>
        <time>2015-07-30T09:04:16Z</time>
      </trkpt>
      <trkpt lat="42.71072" lon="1.37968">
        <ele>1874.18</ele>
        <time>2015-07-30T09:04:42Z</time>
      </trkpt>
      <trkpt lat="42.71056" lon="1.37953">
        <ele>1880.18</ele>
        <time>2015-07-30T09:05:13Z</time>
      </trkpt>
      <trkpt lat="42.71052" lon="1.37929">
        <ele>1885.16</ele>
        <time>2015-07-30T09:06:04Z</time>
      </trkpt>
      <trkpt lat="42.71035" lon="1.37918">
        <ele>1890.39</ele>
        <time>2015-07-30T09:06:44Z</time>
      </trkpt>
      <trkpt lat="42.71044" lon="1.37896">
        <ele>1899.16</ele>
        <time>2015-07-30T09:07:25Z</time>
      </trkpt>
      <trkpt lat="42.71035" lon="1.37875">
        <ele>1907.21</ele>
        <time>2015-07-30T09:08:20Z</time>
      </trkpt>
      <trkpt lat="42.71025" lon="1.37854">
        <ele>1906.09</ele>
        <time>2015-07-30T09:08:53Z</time>
      </trkpt>
      <trkpt lat="42.71018" lon="1.37831">
        <ele>1907.25</ele>
        <time>2015-07-30T09:09:29Z</time>
      </trkpt>
      <trkpt lat="42.71011" lon="1.37808">
        <ele>1913.07</ele>
        <time>2015-07-30T09:10:05Z</time>
      </trkpt>
      <trkpt lat="42.71002" lon="1.37786">
        <ele>1907.46</ele>
        <time>2015-07-30T09:10:44Z</time>
      </trkpt>
      <trkpt lat="42.70996" lon="1.37762">
        <ele>1899.53</ele>
        <time>2015-07-30T09:11:34Z</time>
      </trkpt>
      <trkpt lat="42.70992" lon="1.37738">
        <ele>1896.83</ele>
        <time>2015-07-30T09:13:41Z</time>
      </trkpt>
      <trkpt lat="42.70976" lon="1.37725">
        <ele>1903.16</ele>
        <time>2015-07-30T09:14:26Z</time>
      </trkpt>
      <trkpt lat="42.70964" lon="1.37706">
        <ele>1908.33</ele>
        <time>2015-07-30T09:15:10Z</time>
      </trkpt>
      <trkpt lat="42.70959" lon="1.37681">
        <ele>1909.27</ele>
        <time>2015-07-30T09:15:54Z</time>
      </trkpt>
      <trkpt lat="42.70955" lon="1.37657">
        <ele>1908.93</ele>
        <time>2015-07-30T09:16:29Z</time>
      </trkpt>
      <trkpt lat="42.70954" lon="1.37632">
        <ele>1908.46</ele>
        <time>2015-07-30T09:16:56Z</time>
      </trkpt>
      <trkpt lat="42.70944" lon="1.37612">
        <ele>1908.7</ele>
        <time>2015-07-30T09:17:16Z</time>
      </trkpt>
      <trkpt lat="42.70933" lon="1.37592">
        <ele>1908.21</ele>
        <time>2015-07-30T09:17:35Z</time>
      </trkpt>
      <trkpt lat="42.70921" lon="1.37573">
        <ele>1908.46</ele>
        <time>2015-07-30T09:17:56Z</time>
      </trkpt>
      <trkpt lat="42.7091" lon="1.37553">
        <ele>1910.21</ele>
        <time>2015-07-30T09:18:27Z</time>
      </trkpt>
      <trkpt lat="42.70902" lon="1.37531">
        <ele>1910.12</ele>
        <time>2015-07-30T09:18:56Z</time>
      </trkpt>
      <trkpt lat="42.70893" lon="1.37509">
        <ele>1909.27</ele>
        <time>2015-07-30T09:19:18Z</time>
      </trkpt>
      <trkpt lat="42.70884" lon="1.37488">
        <ele>1910.21</ele>
        <time>2015-07-30T09:19:38Z</time>
      </trkpt>
      <trkpt lat="42.70878" lon="1.37464">
        <ele>1913.24</ele>
        <time>2015-07-30T09:21:11Z</time>
      </trkpt>
      <trkpt lat="42.7087" lon="1.37442">
        <ele>1915.21</ele>
        <time>2015-07-30T09:21:43Z</time>
      </trkpt>
      <trkpt lat="42.70864" lon="1.37418">
        <ele>1916.22</ele>
        <time>2015-07-30T09:22:08Z</time>
      </trkpt>
      <trkpt lat="42.70856" lon="1.37396">
        <ele>1918.21</ele>
        <time>2015-07-30T09:22:37Z</time>
      </trkpt>
      <trkpt lat="42.70851" lon="1.37372">
        <ele>1921.43</ele>
        <time>2015-07-30T09:23:08Z</time>
      </trkpt>
      <trkpt lat="42.70841" lon="1.37351">
        <ele>1927.18</ele>
        <time>2015-07-30T09:23:41Z</time>
      </trkpt>
      <trkpt lat="42.70834" lon="1.37329">
        <ele>1933.89</ele>
        <time>2015-07-30T09:24:30Z</time>
      </trkpt>
      <trkpt lat="42.70822" lon="1.3731">
        <ele>1939.35</ele>
        <time>2015-07-30T09:25:15Z</time>
      </trkpt>
      <trkpt lat="42.7081" lon="1.37292">
        <ele>1941.2</ele>
        <time>2015-07-30T09:25:50Z</time>
      </trkpt>
      <trkpt lat="42.70798" lon="1.37274">
        <ele>1944.96</ele>
        <time>2015-07-30T09:26:26Z</time>
      </trkpt>
      <trkpt lat="42.70786" lon="1.37255">
        <ele>1952.05</ele>
        <time>2015-07-30T09:26:59Z</time>
      </trkpt>
      <trkpt lat="42.70772" lon="1.37239">
        <ele>1958.77</ele>
        <time>2015-07-30T09:27:57Z</time>
      </trkpt>
      <trkpt lat="42.70759" lon="1.37222">
        <ele>1966.19</ele>
        <time>2015-07-30T09:28:41Z</time>
      </trkpt>
      <trkpt lat="42.70745" lon="1.37206">
        <ele>1970.16</ele>
        <time>2015-07-30T09:29:22Z</time>
      </trkpt>
      <trkpt lat="42.70728" lon="1.37197">
        <ele>1972.96</ele>
        <time>2015-07-30T09:29:53Z</time>
      </trkpt>
      <trkpt lat="42.70712" lon="1.37187">
        <ele>1975.2</ele>
        <time>2015-07-30T09:30:26Z</time>
      </trkpt>
      <trkpt lat="42.70694" lon="1.37179">
        <ele>1979.08</ele>
        <time>2015-07-30T09:31:00Z</time>
      </trkpt>
      <trkpt lat="42.70678" lon="1.37168">
        <ele>1983.64</ele>
        <time>2015-07-30T09:31:37Z</time>
      </trkpt>
      <trkpt lat="42.70664" lon="1.37151">
        <ele>1987.08</ele>
        <time>2015-07-30T09:32:10Z</time>
      </trkpt>
      <trkpt lat="42.70651" lon="1.37135">
        <ele>1992.13</ele>
        <time>2015-07-30T09:32:42Z</time>
      </trkpt>
      <trkpt lat="42.70637" lon="1.37118">
        <ele>1995.95</ele>
        <time>2015-07-30T09:33:22Z</time>
      </trkpt>
      <trkpt lat="42.70627" lon="1.37098">
        <ele>2002.2</ele>
        <time>2015-07-30T09:34:01Z</time>
      </trkpt>
      <trkpt lat="42.70617" lon="1.37077">
        <ele>2009.07</ele>
        <time>2015-07-30T09:35:39Z</time>
      </trkpt>
      <trkpt lat="42.70602" lon="1.37062">
        <ele>2013.95</ele>
        <time>2015-07-30T09:36:28Z</time>
      </trkpt>
      <trkpt lat="42.706" lon="1.37038">
        <ele>2020.44</ele>
        <time>2015-07-30T09:37:23Z</time>
      </trkpt>
      <trkpt lat="42.70595" lon="1.37014">
        <ele>2028.18</ele>
        <time>2015-07-30T09:38:25Z</time>
      </trkpt>
      <trkpt lat="42.70595" lon="1.36989">
        <ele>2031.21</ele>
        <time>2015-07-30T09:39:03Z</time>
      </trkpt>
      <trkpt lat="42.70598" lon="1.36965">
        <ele>2038.08</ele>
        <time>2015-07-30T09:39:53Z</time>
      </trkpt>
      <trkpt lat="42.70589" lon="1.36943">
        <ele>2048.97</ele>
        <time>2015-07-30T09:41:23Z</time>
      </trkpt>
      <trkpt lat="42.70592" lon="1.36918">
        <ele>2054.08</ele>
        <time>2015-07-30T09:42:06Z</time>
      </trkpt>
      <trkpt lat="42.70586" lon="1.36895">
        <ele>2061.4</ele>
        <time>2015-07-30T09:43:08Z</time>
      </trkpt>
      <trkpt lat="42.70572" lon="1.36879">
        <ele>2072.66</ele>
        <time>2015-07-30T09:44:55Z</time>
      </trkpt>
      <trkpt lat="42.70564" lon="1.36857">
        <ele>2076.19</ele>
        <time>2015-07-30T09:45:31Z</time>
      </trkpt>
      <trkpt lat="42.70555" lon="1.36835">
        <ele>2082.19</ele>
        <time>2015-07-30T09:46:28Z</time>
      </trkpt>
      <trkpt lat="42.70551" lon="1.36811">
        <ele>2085.68</ele>
        <time>2015-07-30T09:47:11Z</time>
      </trkpt>
      <trkpt lat="42.70536" lon="1.36795">
        <ele>2090.21</ele>
        <time>2015-07-30T09:47:50Z</time>
      </trkpt>
      <trkpt lat="42.70526" lon="1.36775">
        <ele>2091.27</ele>
        <time>2015-07-30T09:48:22Z</time>
      </trkpt>
      <trkpt lat="42.70512" lon="1.36758">
        <ele>2093.96</ele>
        <time>2015-07-30T09:48:56Z</time>
      </trkpt>
      <trkpt lat="42.70503" lon="1.36736">
        <ele>2095.71</ele>
        <time>2015-07-30T09:49:23Z</time>
      </trkpt>
      <trkpt lat="42.70497" lon="1.36712">
        <ele>2093.46</ele>
        <time>2015-07-30T09:49:48Z</time>
      </trkpt>
      <trkpt lat="42.70486" lon="1.36692">
        <ele>2093.2</ele>
        <time>2015-07-30T09:50:23Z</time>
      </trkpt>
      <trkpt lat="42.70472" lon="1.36676">
        <ele>2096.21</ele>
        <time>2015-07-30T09:50:53Z</time>
      </trkpt>
      <trkpt lat="42.70465" lon="1.36653">
        <ele>2100.08</ele>
        <time>2015-07-30T09:51:21Z</time>
      </trkpt>
      <trkpt lat="42.70462" lon="1.36628">
        <ele>2101.44</ele>
        <time>2015-07-30T09:51:51Z</time>
      </trkpt>
      <trkpt lat="42.70469" lon="1.36606">
        <ele>2103.08</ele>
        <time>2015-07-30T09:52:16Z</time>
      </trkpt>
      <trkpt lat="42.70476" lon="1.36583">
        <ele>2101.21</ele>
        <time>2015-07-30T09:52:50Z</time>
      </trkpt>
      <trkpt lat="42.70483" lon="1.36559">
        <ele>2102.58</ele>
        <time>2015-07-30T09:53:12Z</time>
      </trkpt>
      <trkpt lat="42.70487" lon="1.36535">
        <ele>2101.46</ele>
        <time>2015-07-30T09:53:31Z</time>
      </trkpt>
      <trkpt lat="42.70481" lon="1.36512">
        <ele>2099.24</ele>
        <time>2015-07-30T09:53:52Z</time>
      </trkpt>
      <trkpt lat="42.70473" lon="1.3649">
        <ele>2102.21</ele>
        <time>2015-07-30T09:54:28Z</time>
      </trkpt>
      <trkpt lat="42.70473" lon="1.36464">
        <ele>2101.71</ele>
        <time>2015-07-30T09:54:56Z</time>
      </trkpt>
      <trkpt lat="42.70475" lon="1.3644">
        <ele>2098.21</ele>
        <time>2015-07-30T09:55:23Z</time>
      </trkpt>
      <trkpt lat="42.7047" lon="1.36416">
        <ele>2099.18</ele>
        <time>2015-07-30T09:55:45Z</time>
      </trkpt>
      <trkpt lat="42.70472" lon="1.36391">
        <ele>2103.18</ele>
        <time>2015-07-30T09:56:13Z</time>
      </trkpt>
      <trkpt lat="42.70462" lon="1.3637">
        <ele>2108.25</ele>
        <time>2015-07-30T09:56:50Z</time>
      </trkpt>
      <trkpt lat="42.70456" lon="1.36346">
        <ele>2112.11</ele>
        <time>2015-07-30T09:57:29Z</time>
      </trkpt>
      <trkpt lat="42.70449" lon="1.36323">
        <ele>2111.23</ele>
        <time>2015-07-30T09:58:19Z</time>
      </trkpt>
      <trkpt lat="42.70443" lon="1.36299">
        <ele>2115.08</ele>
        <time>2015-07-30T09:58:53Z</time>
      </trkpt>
      <trkpt lat="42.70446" lon="1.36274">
        <ele>2115.08</ele>
        <time>2015-07-30T09:59:23Z</time>
      </trkpt>
      <trkpt lat="42.7044" lon="1.36251">
        <ele>2117.2</ele>
        <time>2015-07-30T09:59:53Z</time>
      </trkpt>
      <trkpt lat="42.70432" lon="1.36228">
        <ele>2119.83</ele>
        <time>2015-07-30T10:00:31Z</time>
      </trkpt>
      <trkpt lat="42.70429" lon="1.36204">
        <ele>2129.69</ele>
        <time>2015-07-30T10:01:20Z</time>
      </trkpt>
      <trkpt lat="42.7042" lon="1.36182">
        <ele>2140</ele>
        <time>2015-07-30T10:02:14Z</time>
      </trkpt>
      <trkpt lat="42.70413" lon="1.36159">
        <ele>2148.36</ele>
        <time>2015-07-30T10:03:18Z</time>
      </trkpt>
      <trkpt lat="42.70411" lon="1.36134">
        <ele>2148.59</ele>
        <time>2015-07-30T10:04:10Z</time>
      </trkpt>
      <trkpt lat="42.70406" lon="1.3611">
        <ele>2155.33</ele>
        <time>2015-07-30T10:05:11Z</time>
      </trkpt>
      <trkpt lat="42.70404" lon="1.36085">
        <ele>2174.68</ele>
        <time>2015-07-30T10:08:18Z</time>
      </trkpt>
      <trkpt lat="42.70394" lon="1.36063">
        <ele>2181.21</ele>
        <time>2015-07-30T10:09:18Z</time>
      </trkpt>
      <trkpt lat="42.70383" lon="1.36043">
        <ele>2181.21</ele>
        <time>2015-07-30T10:12:27Z</time>
      </trkpt>
      <trkpt lat="42.70381" lon="1.36019">
        <ele>2188.16</ele>
        <time>2015-07-30T10:13:02Z</time>
      </trkpt>
      <trkpt lat="42.70381" lon="1.35994">
        <ele>2193.19</ele>
        <time>2015-07-30T10:13:46Z</time>
      </trkpt>
      <trkpt lat="42.7037" lon="1.35974">
        <ele>2197.19</ele>
        <time>2015-07-30T10:14:22Z</time>
      </trkpt>
      <trkpt lat="42.70365" lon="1.35949">
        <ele>2200.2</ele>
        <time>2015-07-30T10:14:49Z</time>
      </trkpt>
      <trkpt lat="42.70358" lon="1.35926">
        <ele>2203.21</ele>
        <time>2015-07-30T10:15:13Z</time>
      </trkpt>
      <trkpt lat="42.70356" lon="1.35901">
        <ele>2206.21</ele>
        <time>2015-07-30T10:16:05Z</time>
      </trkpt>
      <trkpt lat="42.70347" lon="1.3588">
        <ele>2209.17</ele>
        <time>2015-07-30T10:17:00Z</time>
      </trkpt>
      <trkpt lat="42.70339" lon="1.35858">
        <ele>2214.21</ele>
        <time>2015-07-30T10:17:46Z</time>
      </trkpt>
      <trkpt lat="42.70328" lon="1.35839">
        <ele>2213.24</ele>
        <time>2015-07-30T10:18:28Z</time>
      </trkpt>
      <trkpt lat="42.70316" lon="1.3582">
        <ele>2215.33</ele>
        <time>2015-07-30T10:19:24Z</time>
      </trkpt>
      <trkpt lat="42.70306" lon="1.358">
        <ele>2222.15</ele>
        <time>2015-07-30T10:20:25Z</time>
      </trkpt>
      <trkpt lat="42.70298" lon="1.35778">
        <ele>2227.99</ele>
        <time>2015-07-30T10:21:17Z</time>
      </trkpt>
      <trkpt lat="42.70287" lon="1.35758">
        <ele>2233.8</ele>
        <time>2015-07-30T10:22:15Z</time>
      </trkpt>
      <trkpt lat="42.70278" lon="1.35737">
        <ele>2241.58</ele>
        <time>2015-07-30T10:23:44Z</time>
      </trkpt>
      <trkpt lat="42.7027" lon="1.35715">
        <ele>2246.09</ele>
        <time>2015-07-30T10:25:02Z</time>
      </trkpt>
      <trkpt lat="42.70268" lon="1.3569">
        <ele>2255.18</ele>
        <time>2015-07-30T10:28:04Z</time>
      </trkpt>
      <trkpt lat="42.70263" lon="1.35666">
        <ele>2264.21</ele>
        <time>2015-07-30T10:29:43Z</time>
      </trkpt>
      <trkpt lat="42.70251" lon="1.35648">
        <ele>2268.02</ele>
        <time>2015-07-30T10:30:44Z</time>
      </trkpt>
      <trkpt lat="42.70247" lon="1.35624">
        <ele>2273.19</ele>
        <time>2015-07-30T10:31:54Z</time>
      </trkpt>
      <trkpt lat="42.70248" lon="1.356">
        <ele>2282.68</ele>
        <time>2015-07-30T10:33:16Z</time>
      </trkpt>
      <trkpt lat="42.70245" lon="1.35575">
        <ele>2289.46</ele>
        <time>2015-07-30T10:34:33Z</time>
      </trkpt>
      <trkpt lat="42.70237" lon="1.35553">
        <ele>2294.55</ele>
        <time>2015-07-30T10:35:54Z</time>
      </trkpt>
      <trkpt lat="42.70235" lon="1.35528">
        <ele>2303.33</ele>
        <time>2015-07-30T10:37:42Z</time>
      </trkpt>
      <trkpt lat="42.70218" lon="1.35518">
        <ele>2305.71</ele>
        <time>2015-07-30T10:38:46Z</time>
      </trkpt>
      <trkpt lat="42.70205" lon="1.355">
        <ele>2315.35</ele>
        <time>2015-07-30T10:41:21Z</time>
      </trkpt>
      <trkpt lat="42.70202" lon="1.35476">
        <ele>2320.95</ele>
        <time>2015-07-30T10:42:37Z</time>
      </trkpt>
      <trkpt lat="42.70213" lon="1.35457">
        <ele>2329.41</ele>
        <time>2015-07-30T10:44:59Z</time>
      </trkpt>
      <trkpt lat="42.70217" lon="1.35433">
        <ele>2337.19</ele>
        <time>2015-07-30T10:47:14Z</time>
      </trkpt>
      <trkpt lat="42.70229" lon="1.35413">
        <ele>2342.44</ele>
        <time>2015-07-30T10:48:08Z</time>
      </trkpt>
      <trkpt lat="42.70238" lon="1.35392">
        <ele>2348.7</ele>
        <time>2015-07-30T10:48:54Z</time>
      </trkpt>
      <trkpt lat="42.7025" lon="1.35374">
        <ele>2364.45</ele>
        <time>2015-07-30T10:50:05Z</time>
      </trkpt>
      <trkpt lat="42.70261" lon="1.35354">
        <ele>2369.85</ele>
        <time>2015-07-30T10:51:50Z</time>
      </trkpt>
      <trkpt lat="42.70274" lon="1.35337">
        <ele>2378.67</ele>
        <time>2015-07-30T10:53:23Z</time>
      </trkpt>
      <trkpt lat="42.70288" lon="1.35321">
        <ele>2382.08</ele>
        <time>2015-07-30T10:54:08Z</time>
      </trkpt>
      <trkpt lat="42.70292" lon="1.35296">
        <ele>2387.67</ele>
        <time>2015-07-30T10:55:05Z</time>
      </trkpt>
      <trkpt lat="42.70298" lon="1.35273">
        <ele>2402.21</ele>
        <time>2015-07-30T10:57:33Z</time>
      </trkpt>
      <trkpt lat="42.703" lon="1.35248">
        <ele>2411.77</ele>
        <time>2015-07-30T11:03:15Z</time>
      </trkpt>
      <trkpt lat="42.70293" lon="1.35226">
        <ele>2423.7</ele>
        <time>2015-07-30T11:04:21Z</time>
      </trkpt>
      <trkpt lat="42.70296" lon="1.35201">
        <ele>2433.7</ele>
        <time>2015-07-30T11:05:37Z</time>
      </trkpt>
      <trkpt lat="42.70288" lon="1.35178">
        <ele>2445.14</ele>
        <time>2015-07-30T11:07:00Z</time>
      </trkpt>
      <trkpt lat="42.70291" lon="1.35154">
        <ele>2451.91</ele>
        <time>2015-07-30T11:08:09Z</time>
      </trkpt>
      <trkpt lat="42.70298" lon="1.35131">
        <ele>2464.19</ele>
        <time>2015-07-30T11:09:14Z</time>
      </trkpt>
      <trkpt lat="42.70302" lon="1.35107">
        <ele>2478.21</ele>
        <time>2015-07-30T11:10:36Z</time>
      </trkpt>
      <trkpt lat="42.70307" lon="1.35083">
        <ele>2480.33</ele>
        <time>2015-07-30T11:11:27Z</time>
      </trkpt>
      <trkpt lat="42.70304" lon="1.35059">
        <ele>2474.24</ele>
        <time>2015-07-30T11:12:09Z</time>
      </trkpt>
      <trkpt lat="42.70308" lon="1.35035">
        <ele>2471.29</ele>
        <time>2015-07-30T11:12:32Z</time>
      </trkpt>
      <trkpt lat="42.70303" lon="1.35011">
        <ele>2467.73</ele>
        <time>2015-07-30T11:15:25Z</time>
      </trkpt>
      <trkpt lat="42.70299" lon="1.34986">
        <ele>2462.74</ele>
        <time>2015-07-30T11:15:52Z</time>
      </trkpt>
      <trkpt lat="42.703" lon="1.34961">
        <ele>2456.47</ele>
        <time>2015-07-30T11:16:19Z</time>
      </trkpt>
      <trkpt lat="42.70304" lon="1.34936">
        <ele>2451.79</ele>
        <time>2015-07-30T11:16:41Z</time>
      </trkpt>
      <trkpt lat="42.70317" lon="1.3492">
        <ele>2447.23</ele>
        <time>2015-07-30T11:17:04Z</time>
      </trkpt>
      <trkpt lat="42.70325" lon="1.34897">
        <ele>2444.32</ele>
        <time>2015-07-30T11:17:36Z</time>
      </trkpt>
      <trkpt lat="42.70326" lon="1.34872">
        <ele>2434.6</ele>
        <time>2015-07-30T11:18:04Z</time>
      </trkpt>
      <trkpt lat="42.70324" lon="1.34848">
        <ele>2430.28</ele>
        <time>2015-07-30T11:18:32Z</time>
      </trkpt>
      <trkpt lat="42.7033" lon="1.34824">
        <ele>2421.4</ele>
        <time>2015-07-30T11:19:08Z</time>
      </trkpt>
      <trkpt lat="42.7034" lon="1.34804">
        <ele>2411.52</ele>
        <time>2015-07-30T11:19:45Z</time>
      </trkpt>
      <trkpt lat="42.70344" lon="1.3478">
        <ele>2404.35</ele>
        <time>2015-07-30T11:20:14Z</time>
      </trkpt>
      <trkpt lat="42.70359" lon="1.34766">
        <ele>2395.4</ele>
        <time>2015-07-30T11:20:45Z</time>
      </trkpt>
      <trkpt lat="42.70378" lon="1.34766">
        <ele>2382.6</ele>
        <time>2015-07-30T11:21:27Z</time>
      </trkpt>
      <trkpt lat="42.70392" lon="1.3475">
        <ele>2377.46</ele>
        <time>2015-07-30T11:22:24Z</time>
      </trkpt>
      <trkpt lat="42.70404" lon="1.34732">
        <ele>2365.71</ele>
        <time>2015-07-30T11:23:21Z</time>
      </trkpt>
      <trkpt lat="42.70417" lon="1.34715">
        <ele>2358.24</ele>
        <time>2015-07-30T11:24:02Z</time>
      </trkpt>
      <trkpt lat="42.70433" lon="1.34702">
        <ele>2352.71</ele>
        <time>2015-07-30T11:24:29Z</time>
      </trkpt>
      <trkpt lat="42.70451" lon="1.34696">
        <ele>2341.47</ele>
        <time>2015-07-30T11:25:13Z</time>
      </trkpt>
      <trkpt lat="42.70468" lon="1.34692">
        <ele>2333.27</ele>
        <time>2015-07-30T11:25:48Z</time>
      </trkpt>
      <trkpt lat="42.70481" lon="1.34675">
        <ele>2325.34</ele>
        <time>2015-07-30T11:26:34Z</time>
      </trkpt>
      <trkpt lat="42.70497" lon="1.34661">
        <ele>2321.27</ele>
        <time>2015-07-30T11:26:56Z</time>
      </trkpt>
      <trkpt lat="42.70501" lon="1.34637">
        <ele>2315.77</ele>
        <time>2015-07-30T11:27:24Z</time>
      </trkpt>
      <trkpt lat="42.70508" lon="1.34615">
        <ele>2311.21</ele>
        <time>2015-07-30T11:27:50Z</time>
      </trkpt>
      <trkpt lat="42.70516" lon="1.34592">
        <ele>2310.26</ele>
        <time>2015-07-30T11:28:42Z</time>
      </trkpt>
      <trkpt lat="42.70523" lon="1.34568">
        <ele>2299.48</ele>
        <time>2015-07-30T11:29:16Z</time>
      </trkpt>
      <trkpt lat="42.70528" lon="1.34544">
        <ele>2290.28</ele>
        <time>2015-07-30T11:29:49Z</time>
      </trkpt>
      <trkpt lat="42.70536" lon="1.34522">
        <ele>2280.71</ele>
        <time>2015-07-30T11:30:34Z</time>
      </trkpt>
      <trkpt lat="42.70525" lon="1.34502">
        <ele>2268.45</ele>
        <time>2015-07-30T11:31:45Z</time>
      </trkpt>
      <trkpt lat="42.7054" lon="1.34488">
        <ele>2255.72</ele>
        <time>2015-07-30T11:34:21Z</time>
      </trkpt>
      <trkpt lat="42.70558" lon="1.34482">
        <ele>2243.99</ele>
        <time>2015-07-30T11:35:23Z</time>
      </trkpt>
      <trkpt lat="42.70576" lon="1.34484">
        <ele>2237.21</ele>
        <time>2015-07-30T11:36:10Z</time>
      </trkpt>
      <trkpt lat="42.70587" lon="1.34464">
        <ele>2228.7</ele>
        <time>2015-07-30T11:37:26Z</time>
      </trkpt>
      <trkpt lat="42.70604" lon="1.34453">
        <ele>2215.24</ele>
        <time>2015-07-30T11:38:31Z</time>
      </trkpt>
      <trkpt lat="42.70616" lon="1.34435">
        <ele>2201.22</ele>
        <time>2015-07-30T11:39:50Z</time>
      </trkpt>
      <trkpt lat="42.70633" lon="1.34428">
        <ele>2192.21</ele>
        <time>2015-07-30T11:41:15Z</time>
      </trkpt>
      <trkpt lat="42.70649" lon="1.34417">
        <ele>2182.28</ele>
        <time>2015-07-30T11:42:28Z</time>
      </trkpt>
      <trkpt lat="42.70667" lon="1.34412">
        <ele>2171.49</ele>
        <time>2015-07-30T11:43:49Z</time>
      </trkpt>
      <trkpt lat="42.7068" lon="1.34394">
        <ele>2170.3</ele>
        <time>2015-07-30T11:44:36Z</time>
      </trkpt>
      <trkpt lat="42.70686" lon="1.34371">
        <ele>2160.33</ele>
        <time>2015-07-30T11:45:31Z</time>
      </trkpt>
      <trkpt lat="42.70701" lon="1.34357">
        <ele>2157.22</ele>
        <time>2015-07-30T11:46:06Z</time>
      </trkpt>
      <trkpt lat="42.70698" lon="1.34333">
        <ele>2147.27</ele>
        <time>2015-07-30T11:47:15Z</time>
      </trkpt>
      <trkpt lat="42.70705" lon="1.3431">
        <ele>2143.2</ele>
        <time>2015-07-30T11:47:55Z</time>
      </trkpt>
      <trkpt lat="42.70721" lon="1.34298">
        <ele>2136.74</ele>
        <time>2015-07-30T11:48:23Z</time>
      </trkpt>
      <trkpt lat="42.70733" lon="1.34279">
        <ele>2128.27</ele>
        <time>2015-07-30T11:49:08Z</time>
      </trkpt>
      <trkpt lat="42.70751" lon="1.3427">
        <ele>2126.22</ele>
        <time>2015-07-30T11:49:31Z</time>
      </trkpt>
      <trkpt lat="42.70769" lon="1.34269">
        <ele>2124.21</ele>
        <time>2015-07-30T11:49:55Z</time>
      </trkpt>
      <trkpt lat="42.70781" lon="1.34251">
        <ele>2119.7</ele>
        <time>2015-07-30T11:50:24Z</time>
      </trkpt>
      <trkpt lat="42.70793" lon="1.34232">
        <ele>2114.71</ele>
        <time>2015-07-30T11:50:54Z</time>
      </trkpt>
      <trkpt lat="42.70809" lon="1.3422">
        <ele>2108.91</ele>
        <time>2015-07-30T11:51:13Z</time>
      </trkpt>
      <trkpt lat="42.70821" lon="1.342">
        <ele>2106.24</ele>
        <time>2015-07-30T11:51:32Z</time>
      </trkpt>
      <trkpt lat="42.70831" lon="1.34179">
        <ele>2102.27</ele>
        <time>2015-07-30T11:51:54Z</time>
      </trkpt>
      <trkpt lat="42.70843" lon="1.3416">
        <ele>2100.72</ele>
        <time>2015-07-30T11:52:11Z</time>
      </trkpt>
      <trkpt lat="42.70848" lon="1.34136">
        <ele>2096.22</ele>
        <time>2015-07-30T11:52:46Z</time>
      </trkpt>
      <trkpt lat="42.70845" lon="1.34111">
        <ele>2094.27</ele>
        <time>2015-07-30T11:53:06Z</time>
      </trkpt>
      <trkpt lat="42.70835" lon="1.34091">
        <ele>2091.21</ele>
        <time>2015-07-30T11:53:26Z</time>
      </trkpt>
      <trkpt lat="42.70821" lon="1.34075">
        <ele>2090.21</ele>
        <time>2015-07-30T11:53:48Z</time>
      </trkpt>
      <trkpt lat="42.70805" lon="1.34064">
        <ele>2086.84</ele>
        <time>2015-07-30T11:55:29Z</time>
      </trkpt>
      <trkpt lat="42.70814" lon="1.34042">
        <ele>2080.46</ele>
        <time>2015-07-30T11:56:21Z</time>
      </trkpt>
      <trkpt lat="42.70799" lon="1.34027">
        <ele>2072.71</ele>
        <time>2015-07-30T11:56:49Z</time>
      </trkpt>
      <trkpt lat="42.70786" lon="1.3401">
        <ele>2066.48</ele>
        <time>2015-07-30T11:57:06Z</time>
      </trkpt>
      <trkpt lat="42.70768" lon="1.34012">
        <ele>2063.27</ele>
        <time>2015-07-30T11:57:38Z</time>
      </trkpt>
      <trkpt lat="42.70749" lon="1.34014">
        <ele>2057.59</ele>
        <time>2015-07-30T11:58:05Z</time>
      </trkpt>
      <trkpt lat="42.70731" lon="1.34014">
        <ele>2050.34</ele>
        <time>2015-07-30T11:58:36Z</time>
      </trkpt>
      <trkpt lat="42.70713" lon="1.34009">
        <ele>2047.21</ele>
        <time>2015-07-30T11:59:20Z</time>
      </trkpt>
      <trkpt lat="42.70695" lon="1.34012">
        <ele>2042.47</ele>
        <time>2015-07-30T11:59:47Z</time>
      </trkpt>
      <trkpt lat="42.70677" lon="1.34008">
        <ele>2035.48</ele>
        <time>2015-07-30T12:00:47Z</time>
      </trkpt>
      <trkpt lat="42.70658" lon="1.34008">
        <ele>2029.34</ele>
        <time>2015-07-30T12:01:31Z</time>
      </trkpt>
      <trkpt lat="42.70641" lon="1.34001">
        <ele>2026.77</ele>
        <time>2015-07-30T12:02:08Z</time>
      </trkpt>
      <trkpt lat="42.70626" lon="1.33987">
        <ele>2025.27</ele>
        <time>2015-07-30T12:02:43Z</time>
      </trkpt>
      <trkpt lat="42.70607" lon="1.33984">
        <ele>2024.96</ele>
        <time>2015-07-30T12:03:01Z</time>
      </trkpt>
      <trkpt lat="42.70593" lon="1.3397">
        <ele>2022.21</ele>
        <time>2015-07-30T12:03:24Z</time>
      </trkpt>
      <trkpt lat="42.70575" lon="1.33959">
        <ele>2018.48</ele>
        <time>2015-07-30T12:03:42Z</time>
      </trkpt>
      <trkpt lat="42.70559" lon="1.33948">
        <ele>2018.71</ele>
        <time>2015-07-30T12:04:30Z</time>
      </trkpt>
      <trkpt lat="42.7054" lon="1.33948">
        <ele>2022.08</ele>
        <time>2015-07-30T12:04:53Z</time>
      </trkpt>
      <trkpt lat="42.70563" lon="1.33951">
        <ele>2034.71</ele>
        <time>2015-07-30T12:16:37Z</time>
      </trkpt>
      <trkpt lat="42.70545" lon="1.33941">
        <ele>2053.21</ele>
        <time>2015-07-30T12:18:40Z</time>
      </trkpt>
      <trkpt lat="42.70529" lon="1.3393">
        <ele>2057.55</ele>
        <time>2015-07-30T12:19:39Z</time>
      </trkpt>
      <trkpt lat="42.70511" lon="1.33924">
        <ele>2045.54</ele>
        <time>2015-07-30T12:20:05Z</time>
      </trkpt>
      <trkpt lat="42.70494" lon="1.33913">
        <ele>2039.28</ele>
        <time>2015-07-30T12:20:29Z</time>
      </trkpt>
      <trkpt lat="42.70478" lon="1.33901">
        <ele>2038.21</ele>
        <time>2015-07-30T12:20:54Z</time>
      </trkpt>
      <trkpt lat="42.70465" lon="1.33884">
        <ele>2037.22</ele>
        <time>2015-07-30T12:21:52Z</time>
      </trkpt>
      <trkpt lat="42.70459" lon="1.3386">
        <ele>2033.74</ele>
        <time>2015-07-30T12:22:07Z</time>
      </trkpt>
      <trkpt lat="42.70446" lon="1.33842">
        <ele>2034.03</ele>
        <time>2015-07-30T12:22:26Z</time>
      </trkpt>
      <trkpt lat="42.70431" lon="1.33827">
        <ele>2037.88</ele>
        <time>2015-07-30T12:23:27Z</time>
      </trkpt>
      <trkpt lat="42.70417" lon="1.33811">
        <ele>2035.45</ele>
        <time>2015-07-30T12:25:26Z</time>
      </trkpt>
      <trkpt lat="42.70398" lon="1.33814">
        <ele>2027.63</ele>
        <time>2015-07-30T12:26:08Z</time>
      </trkpt>
      <trkpt lat="42.70381" lon="1.33805">
        <ele>2023.34</ele>
        <time>2015-07-30T12:26:27Z</time>
      </trkpt>
      <trkpt lat="42.70366" lon="1.33791">
        <ele>2021.26</ele>
        <time>2015-07-30T12:26:42Z</time>
      </trkpt>
      <trkpt lat="42.70348" lon="1.33787">
        <ele>2019.22</ele>
        <time>2015-07-30T12:27:03Z</time>
      </trkpt>
      <trkpt lat="42.7033" lon="1.33787">
        <ele>2019.58</ele>
        <time>2015-07-30T12:27:23Z</time>
      </trkpt>
      <trkpt lat="42.70311" lon="1.3379">
        <ele>2021.07</ele>
        <time>2015-07-30T12:27:44Z</time>
      </trkpt>
      <trkpt lat="42.70295" lon="1.33777">
        <ele>2019.46</ele>
        <time>2015-07-30T12:28:06Z</time>
      </trkpt>
      <trkpt lat="42.70277" lon="1.33779">
        <ele>2021.14</ele>
        <time>2015-07-30T12:28:27Z</time>
      </trkpt>
      <trkpt lat="42.70261" lon="1.33768">
        <ele>2020.21</ele>
        <time>2015-07-30T12:28:48Z</time>
      </trkpt>
      <trkpt lat="42.70244" lon="1.33757">
        <ele>2019.5</ele>
        <time>2015-07-30T12:29:13Z</time>
      </trkpt>
      <trkpt lat="42.70226" lon="1.33761">
        <ele>2017.78</ele>
        <time>2015-07-30T12:29:34Z</time>
      </trkpt>
      <trkpt lat="42.70208" lon="1.33758">
        <ele>2015.76</ele>
        <time>2015-07-30T12:29:51Z</time>
      </trkpt>
      <trkpt lat="42.70196" lon="1.33739">
        <ele>2016.05</ele>
        <time>2015-07-30T12:30:18Z</time>
      </trkpt>
      <trkpt lat="42.70186" lon="1.33761">
        <ele>2017.21</ele>
        <time>2015-07-30T12:30:34Z</time>
      </trkpt>
      <trkpt lat="42.7017" lon="1.33773">
        <ele>2017.08</ele>
        <time>2015-07-30T12:30:57Z</time>
      </trkpt>
      <trkpt lat="42.70152" lon="1.33773">
        <ele>2014.73</ele>
        <time>2015-07-30T12:31:23Z</time>
      </trkpt>
      <trkpt lat="42.70136" lon="1.33784">
        <ele>2016.08</ele>
        <time>2015-07-30T12:31:49Z</time>
      </trkpt>
      <trkpt lat="42.70118" lon="1.33789">
        <ele>2016.15</ele>
        <time>2015-07-30T12:32:14Z</time>
      </trkpt>
      <trkpt lat="42.701" lon="1.33793">
        <ele>2016.49</ele>
        <time>2015-07-30T12:33:00Z</time>
      </trkpt>
      <trkpt lat="42.70085" lon="1.33777">
        <ele>2027.96</ele>
        <time>2015-07-30T12:35:01Z</time>
      </trkpt>
      <trkpt lat="42.70069" lon="1.33766">
        <ele>2026.21</ele>
        <time>2015-07-30T12:35:28Z</time>
      </trkpt>
      <trkpt lat="42.70051" lon="1.33771">
        <ele>2022.33</ele>
        <time>2015-07-30T12:36:00Z</time>
      </trkpt>
      <trkpt lat="42.70034" lon="1.33785">
        <ele>2020.33</ele>
        <time>2015-07-30T12:36:19Z</time>
      </trkpt>
      <trkpt lat="42.70016" lon="1.33785">
        <ele>2012.36</ele>
        <time>2015-07-30T12:37:01Z</time>
      </trkpt>
      <trkpt lat="42.69998" lon="1.33789">
        <ele>2014.18</ele>
        <time>2015-07-30T12:37:28Z</time>
      </trkpt>
      <trkpt lat="42.69981" lon="1.33784">
        <ele>2011.46</ele>
        <time>2015-07-30T12:37:53Z</time>
      </trkpt>
      <trkpt lat="42.69963" lon="1.33786">
        <ele>2012.96</ele>
        <time>2015-07-30T12:38:08Z</time>
      </trkpt>
      <trkpt lat="42.69944" lon="1.33788">
        <ele>2014.17</ele>
        <time>2015-07-30T12:38:23Z</time>
      </trkpt>
      <trkpt lat="42.69926" lon="1.33791">
        <ele>2013.93</ele>
        <time>2015-07-30T12:38:39Z</time>
      </trkpt>
      <trkpt lat="42.69907" lon="1.33791">
        <ele>2013.08</ele>
        <time>2015-07-30T12:38:58Z</time>
      </trkpt>
      <trkpt lat="42.69896" lon="1.3381">
        <ele>2019.93</ele>
        <time>2015-07-30T12:39:28Z</time>
      </trkpt>
      <trkpt lat="42.69884" lon="1.33828">
        <ele>2022.33</ele>
        <time>2015-07-30T12:39:47Z</time>
      </trkpt>
      <trkpt lat="42.69868" lon="1.33814">
        <ele>2020.77</ele>
        <time>2015-07-30T12:40:05Z</time>
      </trkpt>
      <trkpt lat="42.69863" lon="1.33789">
        <ele>2020.82</ele>
        <time>2015-07-30T12:40:21Z</time>
      </trkpt>
      <trkpt lat="42.69859" lon="1.33765">
        <ele>2020.21</ele>
        <time>2015-07-30T12:40:36Z</time>
      </trkpt>
      <trkpt lat="42.69856" lon="1.3374">
        <ele>2021.08</ele>
        <time>2015-07-30T12:40:52Z</time>
      </trkpt>
      <trkpt lat="42.69865" lon="1.33718">
        <ele>2021.26</ele>
        <time>2015-07-30T12:41:10Z</time>
      </trkpt>
      <trkpt lat="42.69864" lon="1.33693">
        <ele>2018.77</ele>
        <time>2015-07-30T12:41:25Z</time>
      </trkpt>
      <trkpt lat="42.69857" lon="1.33669">
        <ele>2015.71</ele>
        <time>2015-07-30T13:07:31Z</time>
      </trkpt>
      <trkpt lat="42.69855" lon="1.33645">
        <ele>2014.22</ele>
        <time>2015-07-30T13:07:45Z</time>
      </trkpt>
      <trkpt lat="42.69846" lon="1.33621">
        <ele>2011.33</ele>
        <time>2015-07-30T13:08:00Z</time>
      </trkpt>
      <trkpt lat="42.69837" lon="1.336">
        <ele>2009.24</ele>
        <time>2015-07-30T13:08:15Z</time>
      </trkpt>
      <trkpt lat="42.69834" lon="1.33576">
        <ele>2011.19</ele>
        <time>2015-07-30T13:08:29Z</time>
      </trkpt>
      <trkpt lat="42.69832" lon="1.33551">
        <ele>2011.21</ele>
        <time>2015-07-30T13:08:42Z</time>
      </trkpt>
      <trkpt lat="42.69832" lon="1.33526">
        <ele>2011.21</ele>
        <time>2015-07-30T13:08:56Z</time>
      </trkpt>
      <trkpt lat="42.69835" lon="1.335">
        <ele>2014.19</ele>
        <time>2015-07-30T13:09:13Z</time>
      </trkpt>
      <trkpt lat="42.69842" lon="1.33478">
        <ele>2017.27</ele>
        <time>2015-07-30T13:09:27Z</time>
      </trkpt>
      <trkpt lat="42.69851" lon="1.33456">
        <ele>2020.33</ele>
        <time>2015-07-30T13:09:42Z</time>
      </trkpt>
      <trkpt lat="42.69866" lon="1.33442">
        <ele>2035.73</ele>
        <time>2015-07-30T13:10:16Z</time>
      </trkpt>
      <trkpt lat="42.69867" lon="1.33417">
        <ele>2036.74</ele>
        <time>2015-07-30T13:12:04Z</time>
      </trkpt>
      <trkpt lat="42.69881" lon="1.334">
        <ele>2038.18</ele>
        <time>2015-07-30T13:12:24Z</time>
      </trkpt>
      <trkpt lat="42.6989" lon="1.33379">
        <ele>2043.05</ele>
        <time>2015-07-30T13:12:46Z</time>
      </trkpt>
      <trkpt lat="42.69886" lon="1.33355">
        <ele>2028.27</ele>
        <time>2015-07-30T13:13:37Z</time>
      </trkpt>
      <trkpt lat="42.69895" lon="1.33333">
        <ele>2021.96</ele>
        <time>2015-07-30T13:14:59Z</time>
      </trkpt>
      <trkpt lat="42.69903" lon="1.33311">
        <ele>2021.32</ele>
        <time>2015-07-30T13:15:25Z</time>
      </trkpt>
      <trkpt lat="42.6991" lon="1.33288">
        <ele>2021.71</ele>
        <time>2015-07-30T13:15:53Z</time>
      </trkpt>
      <trkpt lat="42.69914" lon="1.33264">
        <ele>2027.21</ele>
        <time>2015-07-30T13:16:24Z</time>
      </trkpt>
      <trkpt lat="42.69925" lon="1.33243">
        <ele>2028.71</ele>
        <time>2015-07-30T13:16:51Z</time>
      </trkpt>
      <trkpt lat="42.69927" lon="1.33218">
        <ele>2027.52</ele>
        <time>2015-07-30T13:17:16Z</time>
      </trkpt>
      <trkpt lat="42.69933" lon="1.33194">
        <ele>2030.18</ele>
        <time>2015-07-30T13:17:35Z</time>
      </trkpt>
      <trkpt lat="42.69943" lon="1.33173">
        <ele>2031.15</ele>
        <time>2015-07-30T13:17:52Z</time>
      </trkpt>
      <trkpt lat="42.69957" lon="1.33158">
        <ele>2026.2</ele>
        <time>2015-07-30T13:18:21Z</time>
      </trkpt>
      <trkpt lat="42.69965" lon="1.33136">
        <ele>2032.07</ele>
        <time>2015-07-30T13:18:47Z</time>
      </trkpt>
      <trkpt lat="42.69982" lon="1.33125">
        <ele>2034.08</ele>
        <time>2015-07-30T13:19:12Z</time>
      </trkpt>
      <trkpt lat="42.69998" lon="1.33112">
        <ele>2037.21</ele>
        <time>2015-07-30T13:19:38Z</time>
      </trkpt>
      <trkpt lat="42.70008" lon="1.33092">
        <ele>2036.22</ele>
        <time>2015-07-30T13:20:00Z</time>
      </trkpt>
      <trkpt lat="42.70023" lon="1.33077">
        <ele>2032.33</ele>
        <time>2015-07-30T13:20:24Z</time>
      </trkpt>
      <trkpt lat="42.70031" lon="1.33054">
        <ele>2035.14</ele>
        <time>2015-07-30T13:20:47Z</time>
      </trkpt>
      <trkpt lat="42.70042" lon="1.33034">
        <ele>2040.25</ele>
        <time>2015-07-30T13:21:19Z</time>
      </trkpt>
      <trkpt lat="42.70049" lon="1.33011">
        <ele>2041.19</ele>
        <time>2015-07-30T13:21:41Z</time>
      </trkpt>
      <trkpt lat="42.70056" lon="1.32988">
        <ele>2049.14</ele>
        <time>2015-07-30T13:22:42Z</time>
      </trkpt>
      <trkpt lat="42.70068" lon="1.32969">
        <ele>2053.17</ele>
        <time>2015-07-30T13:23:14Z</time>
      </trkpt>
      <trkpt lat="42.70086" lon="1.32962">
        <ele>2053.21</ele>
        <time>2015-07-30T13:23:39Z</time>
      </trkpt>
      <trkpt lat="42.70095" lon="1.3294">
        <ele>2059.08</ele>
        <time>2015-07-30T13:24:11Z</time>
      </trkpt>
      <trkpt lat="42.701" lon="1.32915">
        <ele>2059.21</ele>
        <time>2015-07-30T13:24:38Z</time>
      </trkpt>
      <trkpt lat="42.70106" lon="1.32892">
        <ele>2061.21</ele>
        <time>2015-07-30T13:24:59Z</time>
      </trkpt>
      <trkpt lat="42.70117" lon="1.32871">
        <ele>2061.97</ele>
        <time>2015-07-30T13:25:26Z</time>
      </trkpt>
      <trkpt lat="42.70128" lon="1.32853">
        <ele>2065.33</ele>
        <time>2015-07-30T13:25:58Z</time>
      </trkpt>
      <trkpt lat="42.70144" lon="1.32841">
        <ele>2073.2</ele>
        <time>2015-07-30T13:26:44Z</time>
      </trkpt>
      <trkpt lat="42.70155" lon="1.32821">
        <ele>2074.7</ele>
        <time>2015-07-30T13:27:10Z</time>
      </trkpt>
      <trkpt lat="42.70166" lon="1.328">
        <ele>2070.21</ele>
        <time>2015-07-30T13:27:35Z</time>
      </trkpt>
      <trkpt lat="42.70174" lon="1.32778">
        <ele>2074.93</ele>
        <time>2015-07-30T13:28:17Z</time>
      </trkpt>
      <trkpt lat="42.70188" lon="1.32763">
        <ele>2077.96</ele>
        <time>2015-07-30T13:29:07Z</time>
      </trkpt>
      <trkpt lat="42.70197" lon="1.32741">
        <ele>2082.14</ele>
        <time>2015-07-30T13:29:38Z</time>
      </trkpt>
      <trkpt lat="42.70203" lon="1.32717">
        <ele>2088.94</ele>
        <time>2015-07-30T13:30:10Z</time>
      </trkpt>
      <trkpt lat="42.70209" lon="1.32694">
        <ele>2094.19</ele>
        <time>2015-07-30T13:30:41Z</time>
      </trkpt>
      <trkpt lat="42.70217" lon="1.32672">
        <ele>2094.99</ele>
        <time>2015-07-30T13:31:07Z</time>
      </trkpt>
      <trkpt lat="42.70227" lon="1.3265">
        <ele>2096.96</ele>
        <time>2015-07-30T13:31:27Z</time>
      </trkpt>
      <trkpt lat="42.70235" lon="1.32627">
        <ele>2101.08</ele>
        <time>2015-07-30T13:31:52Z</time>
      </trkpt>
      <trkpt lat="42.7024" lon="1.32604">
        <ele>2104.96</ele>
        <time>2015-07-30T13:32:28Z</time>
      </trkpt>
      <trkpt lat="42.70246" lon="1.3258">
        <ele>2108.08</ele>
        <time>2015-07-30T13:32:52Z</time>
      </trkpt>
      <trkpt lat="42.70252" lon="1.32557">
        <ele>2111.14</ele>
        <time>2015-07-30T13:33:19Z</time>
      </trkpt>
      <trkpt lat="42.70256" lon="1.32581">
        <ele>2111.27</ele>
        <time>2015-07-30T13:33:49Z</time>
      </trkpt>
      <trkpt lat="42.70273" lon="1.32571">
        <ele>2111.33</ele>
        <time>2015-07-30T13:34:13Z</time>
      </trkpt>
      <trkpt lat="42.70291" lon="1.3257">
        <ele>2113.71</ele>
        <time>2015-07-30T13:34:43Z</time>
      </trkpt>
      <trkpt lat="42.70309" lon="1.32572">
        <ele>2115.22</ele>
        <time>2015-07-30T13:35:15Z</time>
      </trkpt>
      <trkpt lat="42.70327" lon="1.32579">
        <ele>2109.6</ele>
        <time>2015-07-30T13:35:53Z</time>
      </trkpt>
      <trkpt lat="42.70338" lon="1.32599">
        <ele>2106.22</ele>
        <time>2015-07-30T13:36:17Z</time>
      </trkpt>
      <trkpt lat="42.70356" lon="1.32598">
        <ele>2107.2</ele>
        <time>2015-07-30T13:37:23Z</time>
      </trkpt>
      <trkpt lat="42.70374" lon="1.32598">
        <ele>2108.95</ele>
        <time>2015-07-30T13:37:45Z</time>
      </trkpt>
      <trkpt lat="42.70393" lon="1.32601">
        <ele>2109.58</ele>
        <time>2015-07-30T13:38:09Z</time>
      </trkpt>
      <trkpt lat="42.7041" lon="1.32611">
        <ele>2109.65</ele>
        <time>2015-07-30T13:38:28Z</time>
      </trkpt>
      <trkpt lat="42.70429" lon="1.32612">
        <ele>2108.08</ele>
        <time>2015-07-30T13:38:49Z</time>
      </trkpt>
      <trkpt lat="42.70447" lon="1.32614">
        <ele>2110.33</ele>
        <time>2015-07-30T13:39:13Z</time>
      </trkpt>
      <trkpt lat="42.70462" lon="1.32599">
        <ele>2103.29</ele>
        <time>2015-07-30T13:40:33Z</time>
      </trkpt>
      <trkpt lat="42.70481" lon="1.32593">
        <ele>2104.71</ele>
        <time>2015-07-30T13:40:57Z</time>
      </trkpt>
      <trkpt lat="42.70494" lon="1.32576">
        <ele>2105.22</ele>
        <time>2015-07-30T13:41:17Z</time>
      </trkpt>
      <trkpt lat="42.70512" lon="1.32569">
        <ele>2103.46</ele>
        <time>2015-07-30T13:41:36Z</time>
      </trkpt>
      <trkpt lat="42.70531" lon="1.32567">
        <ele>2105.21</ele>
        <time>2015-07-30T13:42:05Z</time>
      </trkpt>
      <trkpt lat="42.70549" lon="1.32567">
        <ele>2107.08</ele>
        <time>2015-07-30T13:42:36Z</time>
      </trkpt>
      <trkpt lat="42.70568" lon="1.32565">
        <ele>2106.08</ele>
        <time>2015-07-30T13:43:02Z</time>
      </trkpt>
      <trkpt lat="42.70586" lon="1.32565">
        <ele>2104.24</ele>
        <time>2015-07-30T13:43:22Z</time>
      </trkpt>
      <trkpt lat="42.70604" lon="1.3256">
        <ele>2103.34</ele>
        <time>2015-07-30T13:43:47Z</time>
      </trkpt>
      <trkpt lat="42.70619" lon="1.32545">
        <ele>2105.19</ele>
        <time>2015-07-30T13:45:31Z</time>
      </trkpt>
      <trkpt lat="42.70635" lon="1.32534">
        <ele>2106.24</ele>
        <time>2015-07-30T13:45:53Z</time>
      </trkpt>
      <trkpt lat="42.70617" lon="1.32536">
        <ele>2114.76</ele>
        <time>2015-07-30T13:56:33Z</time>
      </trkpt>
      <trkpt lat="42.70602" lon="1.32551">
        <ele>2111.4</ele>
        <time>2015-07-30T13:56:57Z</time>
      </trkpt>
      <trkpt lat="42.70584" lon="1.32557">
        <ele>2111.68</ele>
        <time>2015-07-30T13:57:20Z</time>
      </trkpt>
      <trkpt lat="42.70565" lon="1.32556">
        <ele>2112.19</ele>
        <time>2015-07-30T13:57:41Z</time>
      </trkpt>
      <trkpt lat="42.70546" lon="1.32557">
        <ele>2112.15</ele>
        <time>2015-07-30T13:58:02Z</time>
      </trkpt>
      <trkpt lat="42.70528" lon="1.32554">
        <ele>2111.35</ele>
        <time>2015-07-30T13:58:27Z</time>
      </trkpt>
      <trkpt lat="42.70511" lon="1.32561">
        <ele>2112.64</ele>
        <time>2015-07-30T13:58:52Z</time>
      </trkpt>
      <trkpt lat="42.70492" lon="1.3256">
        <ele>2111.65</ele>
        <time>2015-07-30T13:59:14Z</time>
      </trkpt>
      <trkpt lat="42.70479" lon="1.32578">
        <ele>2107.32</ele>
        <time>2015-07-30T13:59:36Z</time>
      </trkpt>
      <trkpt lat="42.70461" lon="1.32582">
        <ele>2110.64</ele>
        <time>2015-07-30T14:00:07Z</time>
      </trkpt>
      <trkpt lat="42.70443" lon="1.32589">
        <ele>2109.77</ele>
        <time>2015-07-30T14:00:34Z</time>
      </trkpt>
      <trkpt lat="42.70426" lon="1.32599">
        <ele>2100.84</ele>
        <time>2015-07-30T14:00:56Z</time>
      </trkpt>
      <trkpt lat="42.70407" lon="1.32596">
        <ele>2097.97</ele>
        <time>2015-07-30T14:01:18Z</time>
      </trkpt>
      <trkpt lat="42.70389" lon="1.32597">
        <ele>2098.96</ele>
        <time>2015-07-30T14:01:39Z</time>
      </trkpt>
      <trkpt lat="42.7037" lon="1.32596">
        <ele>2100.33</ele>
        <time>2015-07-30T14:01:57Z</time>
      </trkpt>
      <trkpt lat="42.70352" lon="1.32599">
        <ele>2099.27</ele>
        <time>2015-07-30T14:02:22Z</time>
      </trkpt>
      <trkpt lat="42.70334" lon="1.32597">
        <ele>2101.29</ele>
        <time>2015-07-30T14:02:46Z</time>
      </trkpt>
      <trkpt lat="42.70321" lon="1.32578">
        <ele>2104.22</ele>
        <time>2015-07-30T14:03:09Z</time>
      </trkpt>
      <trkpt lat="42.70311" lon="1.32557">
        <ele>2114.95</ele>
        <time>2015-07-30T14:04:06Z</time>
      </trkpt>
      <trkpt lat="42.70295" lon="1.32569">
        <ele>2115.58</ele>
        <time>2015-07-30T14:05:06Z</time>
      </trkpt>
      <trkpt lat="42.70277" lon="1.32566">
        <ele>2113.42</ele>
        <time>2015-07-30T14:05:34Z</time>
      </trkpt>
      <trkpt lat="42.70262" lon="1.32582">
        <ele>2111.21</ele>
        <time>2015-07-30T14:05:55Z</time>
      </trkpt>
      <trkpt lat="42.70253" lon="1.32559">
        <ele>2112.18</ele>
        <time>2015-07-30T14:08:12Z</time>
      </trkpt>
      <trkpt lat="42.70252" lon="1.32534">
        <ele>2110.2</ele>
        <time>2015-07-30T14:08:28Z</time>
      </trkpt>
      <trkpt lat="42.70244" lon="1.32511">
        <ele>2109.4</ele>
        <time>2015-07-30T14:08:51Z</time>
      </trkpt>
      <trkpt lat="42.70247" lon="1.32487">
        <ele>2111.21</ele>
        <time>2015-07-30T14:09:12Z</time>
      </trkpt>
      <trkpt lat="42.7025" lon="1.32462">
        <ele>2110.21</ele>
        <time>2015-07-30T14:09:34Z</time>
      </trkpt>
      <trkpt lat="42.7025" lon="1.32437">
        <ele>2111.21</ele>
        <time>2015-07-30T14:10:00Z</time>
      </trkpt>
      <trkpt lat="42.70255" lon="1.32413">
        <ele>2114.93</ele>
        <time>2015-07-30T14:10:29Z</time>
      </trkpt>
      <trkpt lat="42.70256" lon="1.32388">
        <ele>2118.95</ele>
        <time>2015-07-30T14:10:54Z</time>
      </trkpt>
      <trkpt lat="42.70256" lon="1.32363">
        <ele>2123.7</ele>
        <time>2015-07-30T14:11:23Z</time>
      </trkpt>
      <trkpt lat="42.70256" lon="1.32338">
        <ele>2127.7</ele>
        <time>2015-07-30T14:11:54Z</time>
      </trkpt>
      <trkpt lat="42.7026" lon="1.32314">
        <ele>2131.07</ele>
        <time>2015-07-30T14:12:22Z</time>
      </trkpt>
      <trkpt lat="42.7026" lon="1.32289">
        <ele>2130.4</ele>
        <time>2015-07-30T14:12:43Z</time>
      </trkpt>
      <trkpt lat="42.70263" lon="1.32264">
        <ele>2133.08</ele>
        <time>2015-07-30T14:13:07Z</time>
      </trkpt>
      <trkpt lat="42.70266" lon="1.3224">
        <ele>2137.2</ele>
        <time>2015-07-30T14:13:31Z</time>
      </trkpt>
      <trkpt lat="42.70264" lon="1.32215">
        <ele>2141.1</ele>
        <time>2015-07-30T14:14:09Z</time>
      </trkpt>
      <trkpt lat="42.7026" lon="1.32191">
        <ele>2147.06</ele>
        <time>2015-07-30T14:14:39Z</time>
      </trkpt>
      <trkpt lat="42.70251" lon="1.32169">
        <ele>2153.71</ele>
        <time>2015-07-30T14:15:33Z</time>
      </trkpt>
      <trkpt lat="42.70245" lon="1.32146">
        <ele>2161.7</ele>
        <time>2015-07-30T14:16:23Z</time>
      </trkpt>
      <trkpt lat="42.70246" lon="1.32122">
        <ele>2168.27</ele>
        <time>2015-07-30T14:17:07Z</time>
      </trkpt>
      <trkpt lat="42.70234" lon="1.32103">
        <ele>2175.26</ele>
        <time>2015-07-30T14:18:02Z</time>
      </trkpt>
      <trkpt lat="42.7022" lon="1.32088">
        <ele>2182.19</ele>
        <time>2015-07-30T14:19:03Z</time>
      </trkpt>
      <trkpt lat="42.70204" lon="1.32076">
        <ele>2191.2</ele>
        <time>2015-07-30T14:20:01Z</time>
      </trkpt>
      <trkpt lat="42.70191" lon="1.32058">
        <ele>2201.89</ele>
        <time>2015-07-30T14:20:58Z</time>
      </trkpt>
      <trkpt lat="42.70181" lon="1.32038">
        <ele>2205.21</ele>
        <time>2015-07-30T14:21:34Z</time>
      </trkpt>
      <trkpt lat="42.70175" lon="1.32014">
        <ele>2203.63</ele>
        <time>2015-07-30T14:22:12Z</time>
      </trkpt>
      <trkpt lat="42.70165" lon="1.31992">
        <ele>2207.21</ele>
        <time>2015-07-30T14:22:46Z</time>
      </trkpt>
      <trkpt lat="42.70159" lon="1.31969">
        <ele>2210.05</ele>
        <time>2015-07-30T14:23:24Z</time>
      </trkpt>
      <trkpt lat="42.70164" lon="1.31944">
        <ele>2210.21</ele>
        <time>2015-07-30T14:23:58Z</time>
      </trkpt>
      <trkpt lat="42.70161" lon="1.3192">
        <ele>2207.58</ele>
        <time>2015-07-30T14:24:25Z</time>
      </trkpt>
      <trkpt lat="42.70161" lon="1.31895">
        <ele>2204.49</ele>
        <time>2015-07-30T14:25:05Z</time>
      </trkpt>
      <trkpt lat="42.70177" lon="1.31883">
        <ele>2201.33</ele>
        <time>2015-07-30T14:25:32Z</time>
      </trkpt>
      <trkpt lat="42.70161" lon="1.31894">
        <ele>2203.13</ele>
        <time>2015-07-30T14:26:45Z</time>
      </trkpt>
      <trkpt lat="42.70179" lon="1.31885">
        <ele>2203.21</ele>
        <time>2015-07-30T14:28:52Z</time>
      </trkpt>
      <trkpt lat="42.70194" lon="1.31873">
        <ele>2210.19</ele>
        <time>2015-07-30T14:29:36Z</time>
      </trkpt>
      <trkpt lat="42.70212" lon="1.31865">
        <ele>2214.28</ele>
        <time>2015-07-30T14:33:18Z</time>
      </trkpt>
      <trkpt lat="42.70195" lon="1.31875">
        <ele>2202.21</ele>
        <time>2015-07-30T14:35:20Z</time>
      </trkpt>
      <trkpt lat="42.70178" lon="1.31883">
        <ele>2201.33</ele>
        <time>2015-07-30T14:35:49Z</time>
      </trkpt>
      <trkpt lat="42.70162" lon="1.31896">
        <ele>2201.05</ele>
        <time>2015-07-30T14:36:16Z</time>
      </trkpt>
      <trkpt lat="42.7016" lon="1.3192">
        <ele>2200.92</ele>
        <time>2015-07-30T14:36:43Z</time>
      </trkpt>
      <trkpt lat="42.70164" lon="1.31944">
        <ele>2206.18</ele>
        <time>2015-07-30T14:37:13Z</time>
      </trkpt>
      <trkpt lat="42.70161" lon="1.3197">
        <ele>2210.89</ele>
        <time>2015-07-30T14:37:39Z</time>
      </trkpt>
      <trkpt lat="42.7016" lon="1.31995">
        <ele>2213.97</ele>
        <time>2015-07-30T14:38:18Z</time>
      </trkpt>
      <trkpt lat="42.70143" lon="1.31986">
        <ele>2219.15</ele>
        <time>2015-07-30T14:39:31Z</time>
      </trkpt>
      <trkpt lat="42.70147" lon="1.31961">
        <ele>2222.2</ele>
        <time>2015-07-30T14:39:54Z</time>
      </trkpt>
      <trkpt lat="42.70134" lon="1.31944">
        <ele>2226.14</ele>
        <time>2015-07-30T14:40:19Z</time>
      </trkpt>
      <trkpt lat="42.70117" lon="1.31951">
        <ele>2225.22</ele>
        <time>2015-07-30T14:40:40Z</time>
      </trkpt>
      <trkpt lat="42.70102" lon="1.31936">
        <ele>2221.22</ele>
        <time>2015-07-30T14:41:01Z</time>
      </trkpt>
      <trkpt lat="42.70085" lon="1.31948">
        <ele>2223.15</ele>
        <time>2015-07-30T14:41:25Z</time>
      </trkpt>
      <trkpt lat="42.70081" lon="1.31972">
        <ele>2230.21</ele>
        <time>2015-07-30T14:42:31Z</time>
      </trkpt>
      <trkpt lat="42.70071" lon="1.31993">
        <ele>2230.31</ele>
        <time>2015-07-30T14:42:54Z</time>
      </trkpt>
      <trkpt lat="42.70063" lon="1.32015">
        <ele>2232.26</ele>
        <time>2015-07-30T14:43:12Z</time>
      </trkpt>
      <trkpt lat="42.70049" lon="1.31999">
        <ele>2225.1</ele>
        <time>2015-07-30T14:44:17Z</time>
      </trkpt>
      <trkpt lat="42.70032" lon="1.3199">
        <ele>2211.93</ele>
        <time>2015-07-30T14:45:13Z</time>
      </trkpt>
      <trkpt lat="42.70034" lon="1.31965">
        <ele>2206.18</ele>
        <time>2015-07-30T14:45:56Z</time>
      </trkpt>
      <trkpt lat="42.70037" lon="1.3194">
        <ele>2200.24</ele>
        <time>2015-07-30T14:46:27Z</time>
      </trkpt>
      <trkpt lat="42.70046" lon="1.31919">
        <ele>2187.55</ele>
        <time>2015-07-30T14:47:01Z</time>
      </trkpt>
      <trkpt lat="42.70047" lon="1.31894">
        <ele>2180.68</ele>
        <time>2015-07-30T14:48:14Z</time>
      </trkpt>
      <trkpt lat="42.70048" lon="1.31869">
        <ele>2175.15</ele>
        <time>2015-07-30T14:49:06Z</time>
      </trkpt>
      <trkpt lat="42.70054" lon="1.31846">
        <ele>2158.59</ele>
        <time>2015-07-30T14:49:48Z</time>
      </trkpt>
      <trkpt lat="42.70072" lon="1.3184">
        <ele>2144.45</ele>
        <time>2015-07-30T14:50:22Z</time>
      </trkpt>
      <trkpt lat="42.70084" lon="1.31822">
        <ele>2128.56</ele>
        <time>2015-07-30T14:51:04Z</time>
      </trkpt>
      <trkpt lat="42.70072" lon="1.31803">
        <ele>2129.39</ele>
        <time>2015-07-30T14:51:26Z</time>
      </trkpt>
      <trkpt lat="42.70085" lon="1.31786">
        <ele>2125.03</ele>
        <time>2015-07-30T14:52:00Z</time>
      </trkpt>
      <trkpt lat="42.70101" lon="1.31774">
        <ele>2119.34</ele>
        <time>2015-07-30T14:52:19Z</time>
      </trkpt>
      <trkpt lat="42.70116" lon="1.3176">
        <ele>2105.3</ele>
        <time>2015-07-30T14:52:59Z</time>
      </trkpt>
      <trkpt lat="42.70132" lon="1.31748">
        <ele>2100.18</ele>
        <time>2015-07-30T14:53:31Z</time>
      </trkpt>
      <trkpt lat="42.70144" lon="1.31727">
        <ele>2087.36</ele>
        <time>2015-07-30T14:54:08Z</time>
      </trkpt>
      <trkpt lat="42.70161" lon="1.31715">
        <ele>2086.75</ele>
        <time>2015-07-30T14:55:26Z</time>
      </trkpt>
      <trkpt lat="42.70173" lon="1.31697">
        <ele>2092.18</ele>
        <time>2015-07-30T14:55:48Z</time>
      </trkpt>
      <trkpt lat="42.70188" lon="1.31682">
        <ele>2090.47</ele>
        <time>2015-07-30T14:56:18Z</time>
      </trkpt>
      <trkpt lat="42.70205" lon="1.31688">
        <ele>2096.66</ele>
        <time>2015-07-30T14:57:09Z</time>
      </trkpt>
      <trkpt lat="42.7022" lon="1.31672">
        <ele>2101.86</ele>
        <time>2015-07-30T14:57:38Z</time>
      </trkpt>
      <trkpt lat="42.70237" lon="1.31663">
        <ele>2109.14</ele>
        <time>2015-07-30T14:58:12Z</time>
      </trkpt>
      <trkpt lat="42.70251" lon="1.31646">
        <ele>2108.8</ele>
        <time>2015-07-30T14:58:46Z</time>
      </trkpt>
      <trkpt lat="42.70267" lon="1.31633">
        <ele>2109.98</ele>
        <time>2015-07-30T14:59:12Z</time>
      </trkpt>
      <trkpt lat="42.7028" lon="1.31614">
        <ele>2106.27</ele>
        <time>2015-07-30T14:59:33Z</time>
      </trkpt>
      <trkpt lat="42.7029" lon="1.31593">
        <ele>2109.33</ele>
        <time>2015-07-30T15:00:08Z</time>
      </trkpt>
      <trkpt lat="42.703" lon="1.31572">
        <ele>2110.51</ele>
        <time>2015-07-30T15:00:41Z</time>
      </trkpt>
      <trkpt lat="42.70308" lon="1.3155">
        <ele>2115.99</ele>
        <time>2015-07-30T15:01:55Z</time>
      </trkpt>
      <trkpt lat="42.70326" lon="1.31553">
        <ele>2122.86</ele>
        <time>2015-07-30T15:02:59Z</time>
      </trkpt>
      <trkpt lat="42.70336" lon="1.31532">
        <ele>2125.41</ele>
        <time>2015-07-30T15:03:48Z</time>
      </trkpt>
      <trkpt lat="42.7034" lon="1.31507">
        <ele>2133.4</ele>
        <time>2015-07-30T15:04:29Z</time>
      </trkpt>
      <trkpt lat="42.70349" lon="1.31485">
        <ele>2135.94</ele>
        <time>2015-07-30T15:04:58Z</time>
      </trkpt>
      <trkpt lat="42.70363" lon="1.31468">
        <ele>2141.19</ele>
        <time>2015-07-30T15:05:34Z</time>
      </trkpt>
      <trkpt lat="42.70376" lon="1.31451">
        <ele>2148.11</ele>
        <time>2015-07-30T15:06:15Z</time>
      </trkpt>
      <trkpt lat="42.70392" lon="1.31441">
        <ele>2156.89</ele>
        <time>2015-07-30T15:06:58Z</time>
      </trkpt>
      <trkpt lat="42.704" lon="1.31419">
        <ele>2163.08</ele>
        <time>2015-07-30T15:07:32Z</time>
      </trkpt>
      <trkpt lat="42.70403" lon="1.31394">
        <ele>2165.49</ele>
        <time>2015-07-30T15:08:17Z</time>
      </trkpt>
      <trkpt lat="42.70417" lon="1.31378">
        <ele>2168.91</ele>
        <time>2015-07-30T15:08:57Z</time>
      </trkpt>
      <trkpt lat="42.70415" lon="1.31353">
        <ele>2172.94</ele>
        <time>2015-07-30T15:09:40Z</time>
      </trkpt>
      <trkpt lat="42.7041" lon="1.31329">
        <ele>2171.18</ele>
        <time>2015-07-30T15:10:02Z</time>
      </trkpt>
      <trkpt lat="42.70405" lon="1.31305">
        <ele>2173.58</ele>
        <time>2015-07-30T15:10:33Z</time>
      </trkpt>
      <trkpt lat="42.704" lon="1.3128">
        <ele>2174.2</ele>
        <time>2015-07-30T15:11:17Z</time>
      </trkpt>
      <trkpt lat="42.70392" lon="1.31258">
        <ele>2177.21</ele>
        <time>2015-07-30T15:11:45Z</time>
      </trkpt>
      <trkpt lat="42.70382" lon="1.31237">
        <ele>2178.69</ele>
        <time>2015-07-30T15:12:24Z</time>
      </trkpt>
      <trkpt lat="42.70383" lon="1.31213">
        <ele>2181.27</ele>
        <time>2015-07-30T15:13:02Z</time>
      </trkpt>
      <trkpt lat="42.70382" lon="1.31188">
        <ele>2181.16</ele>
        <time>2015-07-30T15:13:30Z</time>
      </trkpt>
      <trkpt lat="42.70389" lon="1.31165">
        <ele>2188.2</ele>
        <time>2015-07-30T15:14:07Z</time>
      </trkpt>
      <trkpt lat="42.70394" lon="1.31141">
        <ele>2189.96</ele>
        <time>2015-07-30T15:14:40Z</time>
      </trkpt>
      <trkpt lat="42.70392" lon="1.31117">
        <ele>2184.31</ele>
        <time>2015-07-30T15:15:16Z</time>
      </trkpt>
      <trkpt lat="42.70402" lon="1.31096">
        <ele>2181.44</ele>
        <time>2015-07-30T15:15:47Z</time>
      </trkpt>
      <trkpt lat="42.70411" lon="1.31074">
        <ele>2185.42</ele>
        <time>2015-07-30T15:16:12Z</time>
      </trkpt>
      <trkpt lat="42.70424" lon="1.31056">
        <ele>2184.9</ele>
        <time>2015-07-30T15:16:41Z</time>
      </trkpt>
      <trkpt lat="42.70423" lon="1.31031">
        <ele>2185.24</ele>
        <time>2015-07-30T15:17:06Z</time>
      </trkpt>
      <trkpt lat="42.7043" lon="1.31008">
        <ele>2186.27</ele>
        <time>2015-07-30T15:17:35Z</time>
      </trkpt>
      <trkpt lat="42.7044" lon="1.30986">
        <ele>2198.47</ele>
        <time>2015-07-30T15:19:02Z</time>
      </trkpt>
      <trkpt lat="42.70442" lon="1.30962">
        <ele>2197.1</ele>
        <time>2015-07-30T15:19:25Z</time>
      </trkpt>
      <trkpt lat="42.70445" lon="1.30938">
        <ele>2194.21</ele>
        <time>2015-07-30T15:19:57Z</time>
      </trkpt>
      <trkpt lat="42.7044" lon="1.30914">
        <ele>2191.24</ele>
        <time>2015-07-30T15:20:33Z</time>
      </trkpt>
      <trkpt lat="42.70428" lon="1.30894">
        <ele>2191.83</ele>
        <time>2015-07-30T15:20:54Z</time>
      </trkpt>
      <trkpt lat="42.70412" lon="1.30881">
        <ele>2185.65</ele>
        <time>2015-07-30T15:21:13Z</time>
      </trkpt>
      <trkpt lat="42.70396" lon="1.30871">
        <ele>2191.9</ele>
        <time>2015-07-30T15:21:39Z</time>
      </trkpt>
      <trkpt lat="42.70405" lon="1.3085">
        <ele>2203.65</ele>
        <time>2015-07-30T15:22:58Z</time>
      </trkpt>
      <trkpt lat="42.70397" lon="1.30827">
        <ele>2209.05</ele>
        <time>2015-07-30T15:23:29Z</time>
      </trkpt>
      <trkpt lat="42.70408" lon="1.30808">
        <ele>2208.49</ele>
        <time>2015-07-30T15:24:01Z</time>
      </trkpt>
      <trkpt lat="42.70409" lon="1.30783">
        <ele>2213.33</ele>
        <time>2015-07-30T15:24:29Z</time>
      </trkpt>
      <trkpt lat="42.70407" lon="1.30758">
        <ele>2213.74</ele>
        <time>2015-07-30T15:24:57Z</time>
      </trkpt>
      <trkpt lat="42.70408" lon="1.30733">
        <ele>2214.94</ele>
        <time>2015-07-30T15:25:19Z</time>
      </trkpt>
      <trkpt lat="42.70407" lon="1.30708">
        <ele>2213.49</ele>
        <time>2015-07-30T15:25:41Z</time>
      </trkpt>
      <trkpt lat="42.70404" lon="1.30684">
        <ele>2220.05</ele>
        <time>2015-07-30T15:26:11Z</time>
      </trkpt>
      <trkpt lat="42.70398" lon="1.30661">
        <ele>2223.11</ele>
        <time>2015-07-30T15:26:37Z</time>
      </trkpt>
    </trkseg>
  </trk>
</gpx>